PWSweather.com
Personal Weather Stations
Station Observations
56SSEASIDE
Seaside Municipal Airport, Seaside, OR 97138

Seaside Municipal AirportSeaside, OR 97138

Lat: 46.016467, Lon: -123.909457

Elevation: 12

Station Type: Ambient Weather WS-1400-IP

Latest ConditionsUpdated 8:57:00 AM PST Sunday, Jan 26, 2020
Currently Today's Max Today's Min Today's Average
Temperature 49.8°F9.9°C 52.9°F11.6°C 49.8°F9.9°C 50.9°F10.5°C
Dew Point 46.4°F8.0°C 51.2°F10.7°C 43.3°F6.3°C 47.1°F8.4°C
Winds 3.1 mph SW5.0 kmh SW 33.6 mph -54.1 kmh - - 11.6 mph 18.7 kmh
Wind Gusts 4.9 mph7.9 kmh 40.0 mph64.4 kmh - -
Humidity 88% 94% 77% 87%
Pressure 30.59 in1035.9 mb 30.59 in1035.9 mb 30.27 in1025.1 mb -
Precipitation - 0.34 in8.6 mm - -
Hour Temp Dew Point Humidity Winds Wind Gusts Pressure Precip Precip Rate Daily Precip Total
08:57 AM 49.8°F9.9°C 46.4°F8.0°C 88% 3.1 mph SW5.0 kmh SW 4.9 mph7.9 kmh 30.59 in1035.9 mb 0.00 in0.0 mm 0.00 in0.0 mm 0.34 in8.6 mm
08:56 AM 49.8°F9.9°C 46.4°F8.0°C 88% 11.0 mph SW17.7 kmh SW 12.5 mph20.1 kmh 30.58 in1035.6 mb 0.00 in0.0 mm 0.00 in0.0 mm 0.34 in8.6 mm
08:55 AM 49.8°F9.9°C 46.7°F8.2°C 89% 7.8 mph SW12.6 kmh SW 10.1 mph16.3 kmh 30.58 in1035.6 mb 0.00 in0.0 mm 0.00 in0.0 mm 0.34 in8.6 mm
08:54 AM 49.8°F9.9°C 46.7°F8.2°C 89% 7.8 mph SSW12.6 kmh SSW 12.5 mph20.1 kmh 30.59 in1035.9 mb 0.00 in0.0 mm 0.00 in0.0 mm 0.34 in8.6 mm
08:53 AM 49.8°F9.9°C 46.4°F8.0°C 88% 3.4 mph SW5.5 kmh SW 4.9 mph7.9 kmh 30.58 in1035.6 mb 0.00 in0.0 mm 0.00 in0.0 mm 0.34 in8.6 mm
08:52 AM 49.8°F9.9°C 46.4°F8.0°C 88% 4.5 mph SW7.2 kmh SW 4.9 mph7.9 kmh 30.59 in1035.9 mb 0.00 in0.0 mm 0.00 in0.0 mm 0.34 in8.6 mm
08:50 AM 49.8°F9.9°C 46.4°F8.0°C 88% 8.5 mph SSW13.7 kmh SSW 10.1 mph16.3 kmh 30.58 in1035.6 mb 0.00 in0.0 mm 0.00 in0.0 mm 0.34 in8.6 mm
08:49 AM 50.0°F10.0°C 46.3°F7.9°C 87% 10.7 mph SSW17.2 kmh SSW 12.5 mph20.1 kmh 30.58 in1035.6 mb 0.00 in0.0 mm 0.00 in0.0 mm 0.34 in8.6 mm
08:48 AM 50.0°F10.0°C 46.3°F7.9°C 87% 11.6 mph SW18.7 kmh SW 12.5 mph20.1 kmh 30.58 in1035.6 mb 0.00 in0.0 mm 0.00 in0.0 mm 0.34 in8.6 mm
08:47 AM 50.0°F10.0°C 46.0°F7.8°C 86% 10.1 mph SSW16.3 kmh SSW 20.1 mph32.3 kmh 30.58 in1035.6 mb 0.00 in0.0 mm 0.00 in0.0 mm 0.34 in8.6 mm
08:46 AM 50.0°F10.0°C 45.7°F7.6°C 85% 16.3 mph S26.2 kmh S 20.1 mph32.3 kmh 30.58 in1035.6 mb 0.00 in0.0 mm 0.00 in0.0 mm 0.34 in8.6 mm
08:45 AM 50.0°F10.0°C 45.7°F7.6°C 85% 8.7 mph S14.0 kmh S 12.5 mph20.1 kmh 30.58 in1035.6 mb 0.00 in0.0 mm 0.00 in0.0 mm 0.34 in8.6 mm
08:44 AM 50.0°F10.0°C 46.0°F7.8°C 86% 17.0 mph SSW27.4 kmh SSW 22.6 mph36.4 kmh 30.58 in1035.6 mb 0.00 in0.0 mm 0.00 in0.0 mm 0.34 in8.6 mm
08:43 AM 50.0°F10.0°C 46.0°F7.8°C 86% 6.5 mph S10.5 kmh S 7.6 mph12.2 kmh 30.58 in1035.6 mb 0.00 in0.0 mm 0.00 in0.0 mm 0.34 in8.6 mm
08:41 AM 50.0°F10.0°C 46.0°F7.8°C 86% 5.6 mph S9.0 kmh S 7.6 mph12.2 kmh 30.58 in1035.6 mb 0.00 in0.0 mm 0.00 in0.0 mm 0.34 in8.6 mm
08:40 AM 50.0°F10.0°C 46.0°F7.8°C 86% 6.0 mph SW9.7 kmh SW 7.6 mph12.2 kmh 30.58 in1035.6 mb 0.00 in0.0 mm 0.00 in0.0 mm 0.34 in8.6 mm
08:39 AM 50.2°F10.1°C 46.2°F7.9°C 86% 4.0 mph S6.4 kmh S 4.9 mph7.9 kmh 30.58 in1035.6 mb 0.00 in0.0 mm 0.00 in0.0 mm 0.34 in8.6 mm
08:38 AM 50.2°F10.1°C 46.2°F7.9°C 86% 4.0 mph SW6.4 kmh SW 4.9 mph7.9 kmh 30.58 in1035.6 mb 0.00 in0.0 mm 0.00 in0.0 mm 0.34 in8.6 mm
08:37 AM 50.2°F10.1°C 45.9°F7.7°C 85% 7.2 mph S11.6 kmh S 10.1 mph16.3 kmh 30.58 in1035.6 mb 0.00 in0.0 mm 0.00 in0.0 mm 0.34 in8.6 mm
08:36 AM 50.2°F10.1°C 45.9°F7.7°C 85% 3.8 mph SSW6.1 kmh SSW 4.9 mph7.9 kmh 30.58 in1035.6 mb 0.00 in0.0 mm 0.00 in0.0 mm 0.34 in8.6 mm
08:35 AM 50.2°F10.1°C 45.9°F7.7°C 85% 7.2 mph S11.6 kmh S 10.1 mph16.3 kmh 30.58 in1035.6 mb 0.00 in0.0 mm 0.00 in0.0 mm 0.34 in8.6 mm
08:34 AM 50.2°F10.1°C 45.9°F7.7°C 85% 12.3 mph S19.8 kmh S 15.0 mph24.1 kmh 30.58 in1035.6 mb 0.00 in0.0 mm 0.00 in0.0 mm 0.34 in8.6 mm
08:32 AM 50.2°F10.1°C 45.9°F7.7°C 85% 7.2 mph SW11.6 kmh SW 10.1 mph16.3 kmh 30.58 in1035.6 mb 0.00 in0.0 mm 0.00 in0.0 mm 0.34 in8.6 mm
08:31 AM 50.2°F10.1°C 45.9°F7.7°C 85% 3.4 mph S5.5 kmh S 4.9 mph7.9 kmh 30.58 in1035.6 mb 0.00 in0.0 mm 0.00 in0.0 mm 0.34 in8.6 mm
08:30 AM 50.2°F10.1°C 45.9°F7.7°C 85% 4.0 mph SSW6.4 kmh SSW 4.9 mph7.9 kmh 30.58 in1035.6 mb 0.00 in0.0 mm 0.00 in0.0 mm 0.34 in8.6 mm
08:29 AM 50.0°F10.0°C 45.7°F7.6°C 85% 5.6 mph SW9.0 kmh SW 7.6 mph12.2 kmh 30.57 in1035.2 mb 0.00 in0.0 mm 0.00 in0.0 mm 0.34 in8.6 mm
08:28 AM 50.0°F10.0°C 45.7°F7.6°C 85% 8.7 mph SSW14.0 kmh SSW 12.5 mph20.1 kmh 30.58 in1035.6 mb 0.00 in0.0 mm 0.00 in0.0 mm 0.34 in8.6 mm
08:27 AM 50.0°F10.0°C 45.7°F7.6°C 85% 7.6 mph S12.2 kmh S 10.1 mph16.3 kmh 30.58 in1035.6 mb 0.00 in0.0 mm 0.00 in0.0 mm 0.34 in8.6 mm
08:26 AM 50.0°F10.0°C 45.4°F7.4°C 84% 2.2 mph SSW3.5 kmh SSW 2.5 mph4.0 kmh 30.58 in1035.6 mb 0.00 in0.0 mm 0.00 in0.0 mm 0.34 in8.6 mm
08:25 AM 50.0°F10.0°C 45.4°F7.4°C 84% 8.7 mph SW14.0 kmh SW 10.1 mph16.3 kmh 30.58 in1035.6 mb 0.00 in0.0 mm 0.00 in0.0 mm 0.34 in8.6 mm
08:23 AM 50.0°F10.0°C 45.4°F7.4°C 84% 8.7 mph S14.0 kmh S 10.1 mph16.3 kmh 30.57 in1035.2 mb 0.00 in0.0 mm 0.00 in0.0 mm 0.34 in8.6 mm
08:22 AM 50.0°F10.0°C 45.4°F7.4°C 84% 3.8 mph SW6.1 kmh SW 4.9 mph7.9 kmh 30.57 in1035.2 mb 0.00 in0.0 mm 0.00 in0.0 mm 0.34 in8.6 mm
08:21 AM 50.0°F10.0°C 45.4°F7.4°C 84% 4.5 mph SSE7.2 kmh SSE 7.6 mph12.2 kmh 30.57 in1035.2 mb 0.00 in0.0 mm 0.00 in0.0 mm 0.34 in8.6 mm
08:20 AM 50.0°F10.0°C 45.4°F7.4°C 84% 12.5 mph SSE20.1 kmh SSE 15.0 mph24.1 kmh 30.57 in1035.2 mb 0.00 in0.0 mm 0.00 in0.0 mm 0.34 in8.6 mm
08:19 AM 50.0°F10.0°C 45.4°F7.4°C 84% 2.9 mph S4.7 kmh S 4.9 mph7.9 kmh 30.57 in1035.2 mb 0.00 in0.0 mm 0.00 in0.0 mm 0.34 in8.6 mm
08:18 AM 50.0°F10.0°C 45.4°F7.4°C 84% 8.5 mph SW13.7 kmh SW 10.1 mph16.3 kmh 30.58 in1035.6 mb 0.00 in0.0 mm 0.00 in0.0 mm 0.34 in8.6 mm
08:17 AM 50.0°F10.0°C 45.0°F7.2°C 83% 9.6 mph SSW15.4 kmh SSW 12.5 mph20.1 kmh 30.57 in1035.2 mb 0.00 in0.0 mm 0.00 in0.0 mm 0.34 in8.6 mm
08:16 AM 50.0°F10.0°C 44.7°F7.1°C 82% 3.4 mph S5.5 kmh S 4.9 mph7.9 kmh 30.57 in1035.2 mb 0.00 in0.0 mm 0.00 in0.0 mm 0.34 in8.6 mm
08:14 AM 50.0°F10.0°C 44.4°F6.9°C 81% 3.4 mph S5.5 kmh S 4.9 mph7.9 kmh 30.57 in1035.2 mb 0.00 in0.0 mm 0.00 in0.0 mm 0.34 in8.6 mm
08:13 AM 49.8°F9.9°C 44.2°F6.8°C 81% 8.1 mph SW13.0 kmh SW 10.1 mph16.3 kmh 30.57 in1035.2 mb 0.00 in0.0 mm 0.00 in0.0 mm 0.34 in8.6 mm
08:12 AM 49.8°F9.9°C 44.2°F6.8°C 81% 8.7 mph SSW14.0 kmh SSW 15.0 mph24.1 kmh 30.57 in1035.2 mb 0.00 in0.0 mm 0.00 in0.0 mm 0.34 in8.6 mm
08:11 AM 49.8°F9.9°C 44.2°F6.8°C 81% 12.5 mph SW20.1 kmh SW 17.5 mph28.2 kmh 30.57 in1035.2 mb 0.00 in0.0 mm 0.00 in0.0 mm 0.34 in8.6 mm
08:10 AM 49.8°F9.9°C 44.2°F6.8°C 81% 12.5 mph WSW20.1 kmh WSW 15.0 mph24.1 kmh 30.57 in1035.2 mb 0.00 in0.0 mm 0.00 in0.0 mm 0.34 in8.6 mm
08:09 AM 49.8°F9.9°C 44.5°F6.9°C 82% 9.2 mph SW14.8 kmh SW 15.0 mph24.1 kmh 30.56 in1034.9 mb 0.00 in0.0 mm 0.00 in0.0 mm 0.34 in8.6 mm
08:08 AM 49.8°F9.9°C 44.5°F6.9°C 82% 5.4 mph SW8.7 kmh SW 7.6 mph12.2 kmh 30.56 in1034.9 mb 0.00 in0.0 mm 0.00 in0.0 mm 0.34 in8.6 mm
08:07 AM 49.8°F9.9°C 44.5°F6.9°C 82% 6.0 mph SSW9.7 kmh SSW 7.6 mph12.2 kmh 30.57 in1035.2 mb 0.00 in0.0 mm 0.00 in0.0 mm 0.34 in8.6 mm
08:05 AM 50.0°F10.0°C 44.7°F7.1°C 82% 9.6 mph SSW15.4 kmh SSW 12.5 mph20.1 kmh 30.57 in1035.2 mb 0.00 in0.0 mm 0.00 in0.0 mm 0.34 in8.6 mm
08:04 AM 50.0°F10.0°C 44.7°F7.1°C 82% 3.1 mph S5.0 kmh S 4.9 mph7.9 kmh 30.56 in1034.9 mb 0.00 in0.0 mm 0.00 in0.0 mm 0.34 in8.6 mm
08:03 AM 50.0°F10.0°C 44.7°F7.1°C 82% 3.4 mph S5.5 kmh S 4.9 mph7.9 kmh 30.56 in1034.9 mb 0.00 in0.0 mm 0.00 in0.0 mm 0.34 in8.6 mm
08:02 AM 50.0°F10.0°C 44.7°F7.1°C 82% 1.6 mph SW2.6 kmh SW 2.5 mph4.0 kmh 30.57 in1035.2 mb 0.00 in0.0 mm 0.00 in0.0 mm 0.34 in8.6 mm
08:01 AM 50.0°F10.0°C 44.4°F6.9°C 81% 5.6 mph S9.0 kmh S 7.6 mph12.2 kmh 30.56 in1034.9 mb 0.00 in0.0 mm 0.00 in0.0 mm 0.34 in8.6 mm
08:00 AM 50.0°F10.0°C 44.7°F7.1°C 82% 9.2 mph SW14.8 kmh SW 10.1 mph16.3 kmh 30.56 in1034.9 mb 0.00 in0.0 mm 0.00 in0.0 mm 0.34 in8.6 mm
07:59 AM 50.0°F10.0°C 44.7°F7.1°C 82% 7.2 mph SW11.6 kmh SW 10.1 mph16.3 kmh 30.57 in1035.2 mb 0.00 in0.0 mm 0.00 in0.0 mm 0.34 in8.6 mm
07:58 AM 50.0°F10.0°C 45.0°F7.2°C 83% 8.1 mph SSW13.0 kmh SSW 10.1 mph16.3 kmh 30.57 in1035.2 mb 0.00 in0.0 mm 0.00 in0.0 mm 0.34 in8.6 mm
07:56 AM 50.0°F10.0°C 44.7°F7.1°C 82% 9.2 mph SSW14.8 kmh SSW 10.1 mph16.3 kmh 30.57 in1035.2 mb 0.00 in0.0 mm 0.00 in0.0 mm 0.34 in8.6 mm
07:55 AM 50.0°F10.0°C 44.7°F7.1°C 82% 9.4 mph S15.1 kmh S 10.1 mph16.3 kmh 30.56 in1034.9 mb 0.00 in0.0 mm 0.00 in0.0 mm 0.34 in8.6 mm
07:54 AM 50.2°F10.1°C 44.9°F7.2°C 82% 4.5 mph SW7.2 kmh SW 7.6 mph12.2 kmh 30.56 in1034.9 mb 0.00 in0.0 mm 0.00 in0.0 mm 0.34 in8.6 mm
07:53 AM 50.2°F10.1°C 44.9°F7.2°C 82% 4.9 mph S7.9 kmh S 4.9 mph7.9 kmh 30.56 in1034.9 mb 0.00 in0.0 mm 0.00 in0.0 mm 0.34 in8.6 mm
07:52 AM 50.2°F10.1°C 44.9°F7.2°C 82% 3.1 mph SSE5.0 kmh SSE 4.9 mph7.9 kmh 30.56 in1034.9 mb 0.00 in0.0 mm 0.00 in0.0 mm 0.34 in8.6 mm
07:51 AM 50.2°F10.1°C 44.9°F7.2°C 82% 6.3 mph SW10.1 kmh SW 7.6 mph12.2 kmh 30.56 in1034.9 mb 0.00 in0.0 mm 0.00 in0.0 mm 0.34 in8.6 mm
07:50 AM 50.2°F10.1°C 44.6°F7.0°C 81% 6.9 mph S11.1 kmh S 7.6 mph12.2 kmh 30.56 in1034.9 mb 0.00 in0.0 mm 0.00 in0.0 mm 0.34 in8.6 mm
07:49 AM 50.2°F10.1°C 44.6°F7.0°C 81% 6.3 mph SSW10.1 kmh SSW 7.6 mph12.2 kmh 30.56 in1034.9 mb 0.00 in0.0 mm 0.00 in0.0 mm 0.34 in8.6 mm
07:47 AM 50.2°F10.1°C 44.3°F6.8°C 80% 4.0 mph SW6.4 kmh SW 4.9 mph7.9 kmh 30.56 in1034.9 mb 0.00 in0.0 mm 0.00 in0.0 mm 0.34 in8.6 mm
07:46 AM 50.2°F10.1°C 44.3°F6.8°C 80% 5.4 mph SW8.7 kmh SW 7.6 mph12.2 kmh 30.55 in1034.5 mb 0.00 in0.0 mm 0.00 in0.0 mm 0.34 in8.6 mm
07:45 AM 50.2°F10.1°C 44.3°F6.8°C 80% 6.3 mph S10.1 kmh S 7.6 mph12.2 kmh 30.56 in1034.9 mb 0.00 in0.0 mm 0.00 in0.0 mm 0.34 in8.6 mm
07:44 AM 50.2°F10.1°C 43.9°F6.6°C 79% 12.5 mph S20.1 kmh S 17.5 mph28.2 kmh 30.56 in1034.9 mb 0.00 in0.0 mm 0.00 in0.0 mm 0.34 in8.6 mm
07:43 AM 50.2°F10.1°C 43.9°F6.6°C 79% 8.5 mph SW13.7 kmh SW 12.5 mph20.1 kmh 30.56 in1034.9 mb 0.00 in0.0 mm 0.00 in0.0 mm 0.34 in8.6 mm
07:42 AM 50.2°F10.1°C 43.9°F6.6°C 79% 4.0 mph S6.4 kmh S 4.9 mph7.9 kmh 30.56 in1034.9 mb 0.00 in0.0 mm 0.00 in0.0 mm 0.34 in8.6 mm
07:41 AM 50.2°F10.1°C 44.3°F6.8°C 80% 11.6 mph SW18.7 kmh SW 15.0 mph24.1 kmh 30.56 in1034.9 mb 0.00 in0.0 mm 0.00 in0.0 mm 0.34 in8.6 mm
07:40 AM 50.2°F10.1°C 44.3°F6.8°C 80% 8.7 mph SW14.0 kmh SW 12.5 mph20.1 kmh 30.55 in1034.5 mb 0.00 in0.0 mm 0.00 in0.0 mm 0.34 in8.6 mm
07:38 AM 50.2°F10.1°C 44.6°F7.0°C 81% 3.8 mph SE6.1 kmh SE 4.9 mph7.9 kmh 30.56 in1034.9 mb 0.00 in0.0 mm 0.00 in0.0 mm 0.34 in8.6 mm
07:37 AM 50.2°F10.1°C 44.6°F7.0°C 81% 8.1 mph S13.0 kmh S 10.1 mph16.3 kmh 30.56 in1034.9 mb 0.00 in0.0 mm 0.00 in0.0 mm 0.34 in8.6 mm
07:36 AM 50.2°F10.1°C 44.6°F7.0°C 81% 11.2 mph S18.0 kmh S 15.0 mph24.1 kmh 30.55 in1034.5 mb 0.00 in0.0 mm 0.00 in0.0 mm 0.34 in8.6 mm
07:35 AM 50.2°F10.1°C 44.6°F7.0°C 81% 11.9 mph SSW19.2 kmh SSW 15.0 mph24.1 kmh 30.56 in1034.9 mb 0.00 in0.0 mm 0.00 in0.0 mm 0.34 in8.6 mm
07:34 AM 50.2°F10.1°C 44.6°F7.0°C 81% 12.3 mph SSW19.8 kmh SSW 15.0 mph24.1 kmh 30.55 in1034.5 mb 0.00 in0.0 mm 0.00 in0.0 mm 0.34 in8.6 mm
07:33 AM 50.2°F10.1°C 44.9°F7.2°C 82% 9.4 mph SW15.1 kmh SW 10.1 mph16.3 kmh 30.56 in1034.9 mb 0.00 in0.0 mm 0.00 in0.0 mm 0.34 in8.6 mm
07:32 AM 50.2°F10.1°C 44.9°F7.2°C 82% 8.5 mph SW13.7 kmh SW 10.1 mph16.3 kmh 30.55 in1034.5 mb 0.00 in0.0 mm 0.00 in0.0 mm 0.34 in8.6 mm
07:31 AM 50.2°F10.1°C 45.2°F7.3°C 83% 6.0 mph SW9.7 kmh SW 10.1 mph16.3 kmh 30.55 in1034.5 mb 0.00 in0.0 mm 0.00 in0.0 mm 0.34 in8.6 mm
07:29 AM 50.2°F10.1°C 45.2°F7.3°C 83% 8.1 mph SSW13.0 kmh SSW 10.1 mph16.3 kmh 30.55 in1034.5 mb 0.00 in0.0 mm 0.00 in0.0 mm 0.34 in8.6 mm
07:28 AM 50.2°F10.1°C 45.2°F7.3°C 83% 10.3 mph SW16.6 kmh SW 12.5 mph20.1 kmh 30.55 in1034.5 mb 0.00 in0.0 mm 0.00 in0.0 mm 0.34 in8.6 mm
07:27 AM 50.2°F10.1°C 45.2°F7.3°C 83% 8.1 mph SW13.0 kmh SW 10.1 mph16.3 kmh 30.55 in1034.5 mb 0.00 in0.0 mm 0.00 in0.0 mm 0.34 in8.6 mm
07:26 AM 50.2°F10.1°C 45.2°F7.3°C 83% 9.4 mph SSW15.1 kmh SSW 10.1 mph16.3 kmh 30.55 in1034.5 mb 0.00 in0.0 mm 0.00 in0.0 mm 0.34 in8.6 mm
07:25 AM 50.2°F10.1°C 44.9°F7.2°C 82% 6.0 mph SW9.7 kmh SW 7.6 mph12.2 kmh 30.55 in1034.5 mb 0.00 in0.0 mm 0.00 in0.0 mm 0.34 in8.6 mm
07:24 AM 50.2°F10.1°C 44.9°F7.2°C 82% 3.1 mph S5.0 kmh S 4.9 mph7.9 kmh 30.55 in1034.5 mb 0.00 in0.0 mm 0.00 in0.0 mm 0.34 in8.6 mm
07:23 AM 50.2°F10.1°C 44.6°F7.0°C 81% 5.4 mph SSW8.7 kmh SSW 7.6 mph12.2 kmh 30.55 in1034.5 mb 0.00 in0.0 mm 0.00 in0.0 mm 0.34 in8.6 mm
07:22 AM 50.2°F10.1°C 44.6°F7.0°C 81% 7.8 mph SW12.6 kmh SW 10.1 mph16.3 kmh 30.55 in1034.5 mb 0.00 in0.0 mm 0.00 in0.0 mm 0.34 in8.6 mm
07:20 AM 50.2°F10.1°C 45.2°F7.3°C 83% 21.0 mph SSW33.8 kmh SSW 22.6 mph36.4 kmh 30.55 in1034.5 mb 0.00 in0.0 mm 0.00 in0.0 mm 0.34 in8.6 mm
07:19 AM 50.2°F10.1°C 45.6°F7.6°C 84% 4.9 mph SSW7.9 kmh SSW 7.6 mph12.2 kmh 30.55 in1034.5 mb 0.00 in0.0 mm 0.00 in0.0 mm 0.34 in8.6 mm
07:18 AM 50.2°F10.1°C 45.6°F7.6°C 84% 14.1 mph SSW22.7 kmh SSW 17.5 mph28.2 kmh 30.55 in1034.5 mb 0.00 in0.0 mm 0.00 in0.0 mm 0.34 in8.6 mm
07:17 AM 50.2°F10.1°C 45.9°F7.7°C 85% 8.7 mph S14.0 kmh S 12.5 mph20.1 kmh 30.55 in1034.5 mb 0.00 in0.0 mm 0.00 in0.0 mm 0.34 in8.6 mm
07:16 AM 50.2°F10.1°C 45.9°F7.7°C 85% 5.4 mph SSW8.7 kmh SSW 7.6 mph12.2 kmh 30.55 in1034.5 mb 0.00 in0.0 mm 0.00 in0.0 mm 0.34 in8.6 mm
07:15 AM 50.2°F10.1°C 45.9°F7.7°C 85% 6.9 mph S11.1 kmh S 7.6 mph12.2 kmh 30.55 in1034.5 mb 0.00 in0.0 mm 0.00 in0.0 mm 0.34 in8.6 mm
07:14 AM 50.2°F10.1°C 45.9°F7.7°C 85% 9.4 mph SW15.1 kmh SW 10.1 mph16.3 kmh 30.54 in1034.2 mb 0.00 in0.0 mm 0.00 in0.0 mm 0.34 in8.6 mm
07:13 AM 50.2°F10.1°C 45.9°F7.7°C 85% 6.9 mph SW11.1 kmh SW 7.6 mph12.2 kmh 30.54 in1034.2 mb 0.00 in0.0 mm 0.00 in0.0 mm 0.34 in8.6 mm
07:11 AM 50.2°F10.1°C 45.9°F7.7°C 85% 3.8 mph SSW6.1 kmh SSW 4.9 mph7.9 kmh 30.54 in1034.2 mb 0.00 in0.0 mm 0.00 in0.0 mm 0.34 in8.6 mm
07:10 AM 50.2°F10.1°C 45.9°F7.7°C 85% 8.5 mph SW13.7 kmh SW 10.1 mph16.3 kmh 30.54 in1034.2 mb 0.00 in0.0 mm 0.00 in0.0 mm 0.34 in8.6 mm
07:09 AM 50.2°F10.1°C 45.9°F7.7°C 85% 7.6 mph S12.2 kmh S 12.5 mph20.1 kmh 30.55 in1034.5 mb 0.00 in0.0 mm 0.00 in0.0 mm 0.34 in8.6 mm
07:08 AM 50.2°F10.1°C 45.9°F7.7°C 85% 9.2 mph SW14.8 kmh SW 12.5 mph20.1 kmh 30.54 in1034.2 mb 0.00 in0.0 mm 0.00 in0.0 mm 0.34 in8.6 mm
07:07 AM 50.2°F10.1°C 45.9°F7.7°C 85% 9.4 mph SW15.1 kmh SW 10.1 mph16.3 kmh 30.55 in1034.5 mb 0.00 in0.0 mm 0.00 in0.0 mm 0.34 in8.6 mm
07:06 AM 50.2°F10.1°C 45.9°F7.7°C 85% 5.6 mph SSW9.0 kmh SSW 7.6 mph12.2 kmh 30.54 in1034.2 mb 0.00 in0.0 mm 0.00 in0.0 mm 0.34 in8.6 mm
07:05 AM 50.2°F10.1°C 45.9°F7.7°C 85% 9.6 mph S15.4 kmh S 15.0 mph24.1 kmh 30.54 in1034.2 mb 0.00 in0.0 mm 0.00 in0.0 mm 0.34 in8.6 mm
07:04 AM 50.2°F10.1°C 45.6°F7.6°C 84% 6.0 mph S9.7 kmh S 7.6 mph12.2 kmh 30.54 in1034.2 mb 0.00 in0.0 mm 0.00 in0.0 mm 0.34 in8.6 mm
07:02 AM 50.2°F10.1°C 45.6°F7.6°C 84% 5.4 mph SW8.7 kmh SW 7.6 mph12.2 kmh 30.53 in1033.9 mb 0.00 in0.0 mm 0.00 in0.0 mm 0.34 in8.6 mm
07:01 AM 50.2°F10.1°C 45.6°F7.6°C 84% 10.3 mph SSW16.6 kmh SSW 12.5 mph20.1 kmh 30.54 in1034.2 mb 0.00 in0.0 mm 0.00 in0.0 mm 0.34 in8.6 mm
07:00 AM 50.2°F10.1°C 45.6°F7.6°C 84% 17.5 mph SSW28.2 kmh SSW 20.1 mph32.3 kmh 30.53 in1033.9 mb 0.00 in0.0 mm 0.00 in0.0 mm 0.34 in8.6 mm
06:59 AM 50.2°F10.1°C 45.9°F7.7°C 85% 15.9 mph S25.6 kmh S 17.5 mph28.2 kmh 30.54 in1034.2 mb 0.00 in0.0 mm 0.00 in0.0 mm 0.34 in8.6 mm
06:58 AM 50.2°F10.1°C 45.9°F7.7°C 85% 9.6 mph SSW15.4 kmh SSW 15.0 mph24.1 kmh 30.53 in1033.9 mb 0.00 in0.0 mm 0.00 in0.0 mm 0.34 in8.6 mm
06:57 AM 50.2°F10.1°C 45.9°F7.7°C 85% 7.6 mph SW12.2 kmh SW 10.1 mph16.3 kmh 30.53 in1033.9 mb 0.00 in0.0 mm 0.00 in0.0 mm 0.34 in8.6 mm
06:56 AM 50.4°F10.2°C 46.1°F7.8°C 85% 7.6 mph SSW12.2 kmh SSW 10.1 mph16.3 kmh 30.53 in1033.9 mb 0.00 in0.0 mm 0.00 in0.0 mm 0.34 in8.6 mm
06:55 AM 50.4°F10.2°C 46.1°F7.8°C 85% 4.5 mph SSW7.2 kmh SSW 4.9 mph7.9 kmh 30.54 in1034.2 mb 0.00 in0.0 mm 0.00 in0.0 mm 0.34 in8.6 mm
06:53 AM 50.4°F10.2°C 46.1°F7.8°C 85% 6.3 mph S10.1 kmh S 7.6 mph12.2 kmh 30.54 in1034.2 mb 0.00 in0.0 mm 0.00 in0.0 mm 0.34 in8.6 mm
06:52 AM 50.4°F10.2°C 46.1°F7.8°C 85% 8.1 mph S13.0 kmh S 10.1 mph16.3 kmh 30.53 in1033.9 mb 0.00 in0.0 mm 0.00 in0.0 mm 0.34 in8.6 mm
06:51 AM 50.4°F10.2°C 46.1°F7.8°C 85% 10.3 mph SW16.6 kmh SW 15.0 mph24.1 kmh 30.54 in1034.2 mb 0.00 in0.0 mm 0.00 in0.0 mm 0.34 in8.6 mm
06:49 AM 50.4°F10.2°C 45.7°F7.6°C 84% 10.3 mph SW16.6 kmh SW 12.5 mph20.1 kmh 30.53 in1033.9 mb 0.00 in0.0 mm 0.00 in0.0 mm 0.34 in8.6 mm
06:48 AM 50.4°F10.2°C 45.7°F7.6°C 84% 9.2 mph SSW14.8 kmh SSW 10.1 mph16.3 kmh 30.53 in1033.9 mb 0.00 in0.0 mm 0.00 in0.0 mm 0.34 in8.6 mm
06:47 AM 50.4°F10.2°C 45.4°F7.4°C 83% 6.0 mph S9.7 kmh S 7.6 mph12.2 kmh 30.53 in1033.9 mb 0.00 in0.0 mm 0.00 in0.0 mm 0.34 in8.6 mm
06:46 AM 50.4°F10.2°C 45.4°F7.4°C 83% 5.4 mph SSW8.7 kmh SSW 7.6 mph12.2 kmh 30.54 in1034.2 mb 0.00 in0.0 mm 0.00 in0.0 mm 0.34 in8.6 mm
06:44 AM 50.4°F10.2°C 45.1°F7.3°C 82% 6.0 mph SW9.7 kmh SW 7.6 mph12.2 kmh 30.53 in1033.9 mb 0.00 in0.0 mm 0.00 in0.0 mm 0.34 in8.6 mm
06:43 AM 50.4°F10.2°C 45.1°F7.3°C 82% 11.6 mph SSW18.7 kmh SSW 15.0 mph24.1 kmh 30.53 in1033.9 mb 0.00 in0.0 mm 0.00 in0.0 mm 0.34 in8.6 mm
06:42 AM 50.4°F10.2°C 45.1°F7.3°C 82% 3.8 mph SSE6.1 kmh SSE 4.9 mph7.9 kmh 30.53 in1033.9 mb 0.00 in0.0 mm 0.00 in0.0 mm 0.34 in8.6 mm
06:41 AM 50.4°F10.2°C 45.1°F7.3°C 82% 4.7 mph S7.6 kmh S 7.6 mph12.2 kmh 30.53 in1033.9 mb 0.00 in0.0 mm 0.00 in0.0 mm 0.34 in8.6 mm
06:40 AM 50.4°F10.2°C 45.1°F7.3°C 82% 6.9 mph SSW11.1 kmh SSW 7.6 mph12.2 kmh 30.53 in1033.9 mb 0.00 in0.0 mm 0.00 in0.0 mm 0.34 in8.6 mm
06:39 AM 50.4°F10.2°C 45.1°F7.3°C 82% 10.7 mph SSW17.2 kmh SSW 12.5 mph20.1 kmh 30.53 in1033.9 mb 0.00 in0.0 mm 0.00 in0.0 mm 0.34 in8.6 mm
06:38 AM 50.4°F10.2°C 44.8°F7.1°C 81% 2.5 mph S4.0 kmh S 4.9 mph7.9 kmh 30.53 in1033.9 mb 0.00 in0.0 mm 0.00 in0.0 mm 0.34 in8.6 mm
06:37 AM 50.2°F10.1°C 44.6°F7.0°C 81% 0.9 mph SW1.4 kmh SW 2.5 mph4.0 kmh 30.53 in1033.9 mb 0.00 in0.0 mm 0.00 in0.0 mm 0.34 in8.6 mm
06:35 AM 50.2°F10.1°C 44.3°F6.8°C 80% 7.2 mph SW11.6 kmh SW 10.1 mph16.3 kmh 30.52 in1033.5 mb 0.00 in0.0 mm 0.00 in0.0 mm 0.34 in8.6 mm
06:34 AM 50.2°F10.1°C 44.6°F7.0°C 81% 11.6 mph SW18.7 kmh SW 12.5 mph20.1 kmh 30.52 in1033.5 mb 0.00 in0.0 mm 0.00 in0.0 mm 0.34 in8.6 mm
06:33 AM 50.2°F10.1°C 44.3°F6.8°C 80% 6.3 mph S10.1 kmh S 7.6 mph12.2 kmh 30.52 in1033.5 mb 0.00 in0.0 mm 0.00 in0.0 mm 0.34 in8.6 mm
06:32 AM 50.2°F10.1°C 44.3°F6.8°C 80% 9.2 mph SW14.8 kmh SW 12.5 mph20.1 kmh 30.53 in1033.9 mb 0.00 in0.0 mm 0.00 in0.0 mm 0.34 in8.6 mm
06:31 AM 50.2°F10.1°C 44.3°F6.8°C 80% 7.6 mph SSE12.2 kmh SSE 10.1 mph16.3 kmh 30.53 in1033.9 mb 0.00 in0.0 mm 0.00 in0.0 mm 0.34 in8.6 mm
06:30 AM 50.2°F10.1°C 44.3°F6.8°C 80% 7.6 mph SSW12.2 kmh SSW 10.1 mph16.3 kmh 30.53 in1033.9 mb 0.00 in0.0 mm 0.00 in0.0 mm 0.34 in8.6 mm
06:29 AM 50.2°F10.1°C 44.3°F6.8°C 80% 11.2 mph S18.0 kmh S 15.0 mph24.1 kmh 30.53 in1033.9 mb 0.00 in0.0 mm 0.00 in0.0 mm 0.34 in8.6 mm
06:28 AM 50.2°F10.1°C 44.3°F6.8°C 80% 11.9 mph SSW19.2 kmh SSW 12.5 mph20.1 kmh 30.53 in1033.9 mb 0.00 in0.0 mm 0.00 in0.0 mm 0.34 in8.6 mm
06:26 AM 50.2°F10.1°C 44.3°F6.8°C 80% 12.3 mph SSW19.8 kmh SSW 17.5 mph28.2 kmh 30.53 in1033.9 mb 0.00 in0.0 mm 0.00 in0.0 mm 0.34 in8.6 mm
06:25 AM 50.2°F10.1°C 44.3°F6.8°C 80% 7.2 mph SSE11.6 kmh SSE 10.1 mph16.3 kmh 30.53 in1033.9 mb 0.00 in0.0 mm 0.00 in0.0 mm 0.34 in8.6 mm
06:24 AM 50.2°F10.1°C 44.3°F6.8°C 80% 12.5 mph SSW20.1 kmh SSW 15.0 mph24.1 kmh 30.53 in1033.9 mb 0.00 in0.0 mm 0.00 in0.0 mm 0.34 in8.6 mm
06:23 AM 50.4°F10.2°C 44.8°F7.1°C 81% 9.4 mph SW15.1 kmh SW 10.1 mph16.3 kmh 30.52 in1033.5 mb 0.00 in0.0 mm 0.00 in0.0 mm 0.34 in8.6 mm
06:22 AM 50.4°F10.2°C 44.8°F7.1°C 81% 14.3 mph SSW23.0 kmh SSW 17.5 mph28.2 kmh 30.53 in1033.9 mb 0.00 in0.0 mm 0.00 in0.0 mm 0.34 in8.6 mm
06:21 AM 50.4°F10.2°C 44.8°F7.1°C 81% 8.1 mph SSW13.0 kmh SSW 10.1 mph16.3 kmh 30.53 in1033.9 mb 0.00 in0.0 mm 0.00 in0.0 mm 0.34 in8.6 mm
06:20 AM 50.4°F10.2°C 45.1°F7.3°C 82% 7.8 mph S12.6 kmh S 10.1 mph16.3 kmh 30.52 in1033.5 mb 0.00 in0.0 mm 0.00 in0.0 mm 0.34 in8.6 mm
06:19 AM 50.4°F10.2°C 45.1°F7.3°C 82% 10.1 mph SSW16.3 kmh SSW 15.0 mph24.1 kmh 30.52 in1033.5 mb 0.00 in0.0 mm 0.00 in0.0 mm 0.34 in8.6 mm
06:16 AM 50.4°F10.2°C 45.1°F7.3°C 82% 7.8 mph SSW12.6 kmh SSW 10.1 mph16.3 kmh 30.52 in1033.5 mb 0.00 in0.0 mm 0.00 in0.0 mm 0.34 in8.6 mm
06:15 AM 50.4°F10.2°C 45.1°F7.3°C 82% 10.7 mph S17.2 kmh S 12.5 mph20.1 kmh 30.52 in1033.5 mb 0.00 in0.0 mm 0.00 in0.0 mm 0.34 in8.6 mm
06:14 AM 50.4°F10.2°C 45.1°F7.3°C 82% 6.5 mph S10.5 kmh S 10.1 mph16.3 kmh 30.52 in1033.5 mb 0.00 in0.0 mm 0.00 in0.0 mm 0.34 in8.6 mm
06:13 AM 50.4°F10.2°C 45.1°F7.3°C 82% 6.9 mph SW11.1 kmh SW 7.6 mph12.2 kmh 30.52 in1033.5 mb 0.00 in0.0 mm 0.00 in0.0 mm 0.34 in8.6 mm
06:12 AM 50.5°F10.3°C 45.5°F7.5°C 83% 8.1 mph SSE13.0 kmh SSE 10.1 mph16.3 kmh 30.52 in1033.5 mb 0.00 in0.0 mm 0.00 in0.0 mm 0.34 in8.6 mm
06:11 AM 50.5°F10.3°C 45.5°F7.5°C 83% 7.6 mph SW12.2 kmh SW 10.1 mph16.3 kmh 30.51 in1033.2 mb 0.00 in0.0 mm 0.00 in0.0 mm 0.34 in8.6 mm
06:10 AM 50.5°F10.3°C 45.8°F7.7°C 84% 18.6 mph SSW29.9 kmh SSW 20.1 mph32.3 kmh 30.52 in1033.5 mb 0.00 in0.0 mm 0.00 in0.0 mm 0.34 in8.6 mm
06:08 AM 50.5°F10.3°C 46.5°F8.1°C 86% 5.4 mph SW8.7 kmh SW 7.6 mph12.2 kmh 30.52 in1033.5 mb 0.00 in0.0 mm 0.00 in0.0 mm 0.34 in8.6 mm
06:07 AM 50.5°F10.3°C 46.5°F8.1°C 86% 7.2 mph S11.6 kmh S 10.1 mph16.3 kmh 30.51 in1033.2 mb 0.00 in0.0 mm 0.00 in0.0 mm 0.34 in8.6 mm
06:06 AM 50.5°F10.3°C 46.5°F8.1°C 86% 11.0 mph SSW17.7 kmh SSW 15.0 mph24.1 kmh 30.51 in1033.2 mb 0.00 in0.0 mm 0.00 in0.0 mm 0.34 in8.6 mm
06:05 AM 50.5°F10.3°C 46.5°F8.1°C 86% 8.7 mph S14.0 kmh S 10.1 mph16.3 kmh 30.51 in1033.2 mb 0.00 in0.0 mm 0.00 in0.0 mm 0.34 in8.6 mm
06:04 AM 50.5°F10.3°C 46.2°F7.9°C 85% 11.9 mph SSW19.2 kmh SSW 17.5 mph28.2 kmh 30.52 in1033.5 mb 0.00 in0.0 mm 0.00 in0.0 mm 0.34 in8.6 mm
06:03 AM 50.5°F10.3°C 46.2°F7.9°C 85% 2.5 mph SW4.0 kmh SW 2.5 mph4.0 kmh 30.52 in1033.5 mb 0.00 in0.0 mm 0.00 in0.0 mm 0.34 in8.6 mm
06:02 AM 50.5°F10.3°C 45.8°F7.7°C 84% 11.6 mph S18.7 kmh S 15.0 mph24.1 kmh 30.51 in1033.2 mb 0.00 in0.0 mm 0.00 in0.0 mm 0.34 in8.6 mm
06:01 AM 50.5°F10.3°C 45.8°F7.7°C 84% 12.5 mph SW20.1 kmh SW 15.0 mph24.1 kmh 30.52 in1033.5 mb 0.00 in0.0 mm 0.00 in0.0 mm 0.34 in8.6 mm
05:59 AM 50.5°F10.3°C 45.5°F7.5°C 83% 11.0 mph SW17.7 kmh SW 12.5 mph20.1 kmh 30.50 in1032.8 mb 0.00 in0.0 mm 0.00 in0.0 mm 0.34 in8.6 mm
05:58 AM 50.5°F10.3°C 45.5°F7.5°C 83% 6.3 mph S10.1 kmh S 7.6 mph12.2 kmh 30.52 in1033.5 mb 0.00 in0.0 mm 0.00 in0.0 mm 0.34 in8.6 mm
05:57 AM 50.5°F10.3°C 45.2°F7.3°C 82% 7.8 mph SSW12.6 kmh SSW 10.1 mph16.3 kmh 30.52 in1033.5 mb 0.00 in0.0 mm 0.00 in0.0 mm 0.34 in8.6 mm
05:56 AM 50.5°F10.3°C 44.9°F7.2°C 81% 10.7 mph SSW17.2 kmh SSW 15.0 mph24.1 kmh 30.52 in1033.5 mb 0.00 in0.0 mm 0.00 in0.0 mm 0.34 in8.6 mm
05:55 AM 50.5°F10.3°C 44.6°F7.0°C 80% 7.8 mph SW12.6 kmh SW 10.1 mph16.3 kmh 30.51 in1033.2 mb 0.00 in0.0 mm 0.00 in0.0 mm 0.34 in8.6 mm
05:54 AM 50.5°F10.3°C 44.2°F6.8°C 79% 4.9 mph SSW7.9 kmh SSW 7.6 mph12.2 kmh 30.51 in1033.2 mb 0.00 in0.0 mm 0.00 in0.0 mm 0.34 in8.6 mm
05:53 AM 50.5°F10.3°C 43.9°F6.6°C 78% 10.3 mph SSW16.6 kmh SSW 12.5 mph20.1 kmh 30.50 in1032.8 mb 0.00 in0.0 mm 0.00 in0.0 mm 0.34 in8.6 mm
05:52 AM 50.4°F10.2°C 43.8°F6.6°C 78% 12.5 mph SSW20.1 kmh SSW 15.0 mph24.1 kmh 30.49 in1032.5 mb 0.00 in0.0 mm 0.00 in0.0 mm 0.34 in8.6 mm
05:50 AM 50.4°F10.2°C 43.8°F6.6°C 78% 12.5 mph S20.1 kmh S 15.0 mph24.1 kmh 30.50 in1032.8 mb 0.00 in0.0 mm 0.00 in0.0 mm 0.34 in8.6 mm
05:49 AM 50.4°F10.2°C 43.8°F6.6°C 78% 7.6 mph S12.2 kmh S 10.1 mph16.3 kmh 30.50 in1032.8 mb 0.00 in0.0 mm 0.00 in0.0 mm 0.34 in8.6 mm
05:48 AM 50.4°F10.2°C 43.8°F6.6°C 78% 10.3 mph SSW16.6 kmh SSW 12.5 mph20.1 kmh 30.51 in1033.2 mb 0.00 in0.0 mm 0.00 in0.0 mm 0.34 in8.6 mm
05:47 AM 50.4°F10.2°C 43.8°F6.6°C 78% 11.0 mph SSW17.7 kmh SSW 12.5 mph20.1 kmh 30.50 in1032.8 mb 0.00 in0.0 mm 0.00 in0.0 mm 0.34 in8.6 mm
05:46 AM 50.4°F10.2°C 43.5°F6.4°C 77% 14.8 mph SW23.8 kmh SW 17.5 mph28.2 kmh 30.50 in1032.8 mb 0.00 in0.0 mm 0.00 in0.0 mm 0.34 in8.6 mm
05:45 AM 50.4°F10.2°C 44.1°F6.7°C 79% 10.1 mph SSW16.3 kmh SSW 12.5 mph20.1 kmh 30.50 in1032.8 mb 0.00 in0.0 mm 0.00 in0.0 mm 0.34 in8.6 mm
05:44 AM 50.4°F10.2°C 43.8°F6.6°C 78% 9.2 mph SW14.8 kmh SW 10.1 mph16.3 kmh 30.50 in1032.8 mb 0.00 in0.0 mm 0.00 in0.0 mm 0.34 in8.6 mm
05:43 AM 50.4°F10.2°C 43.8°F6.6°C 78% 10.3 mph SSW16.6 kmh SSW 12.5 mph20.1 kmh 30.50 in1032.8 mb 0.00 in0.0 mm 0.00 in0.0 mm 0.34 in8.6 mm
05:41 AM 50.4°F10.2°C 43.8°F6.6°C 78% 9.4 mph SW15.1 kmh SW 10.1 mph16.3 kmh 30.50 in1032.8 mb 0.00 in0.0 mm 0.00 in0.0 mm 0.34 in8.6 mm
05:40 AM 50.4°F10.2°C 43.5°F6.4°C 77% 4.0 mph SW6.4 kmh SW 4.9 mph7.9 kmh 30.50 in1032.8 mb 0.00 in0.0 mm 0.00 in0.0 mm 0.34 in8.6 mm
05:39 AM 50.2°F10.1°C 43.3°F6.3°C 77% 9.4 mph SW15.1 kmh SW 12.5 mph20.1 kmh 30.50 in1032.8 mb 0.00 in0.0 mm 0.00 in0.0 mm 0.34 in8.6 mm
05:38 AM 50.2°F10.1°C 43.3°F6.3°C 77% 7.8 mph SSW12.6 kmh SSW 10.1 mph16.3 kmh 30.50 in1032.8 mb 0.00 in0.0 mm 0.00 in0.0 mm 0.34 in8.6 mm
05:37 AM 50.2°F10.1°C 43.3°F6.3°C 77% 7.6 mph SW12.2 kmh SW 10.1 mph16.3 kmh 30.49 in1032.5 mb 0.00 in0.0 mm 0.00 in0.0 mm 0.34 in8.6 mm
05:36 AM 50.2°F10.1°C 43.6°F6.4°C 78% 4.9 mph SSW7.9 kmh SSW 4.9 mph7.9 kmh 30.50 in1032.8 mb 0.00 in0.0 mm 0.00 in0.0 mm 0.34 in8.6 mm
05:35 AM 50.2°F10.1°C 43.6°F6.4°C 78% 7.8 mph SW12.6 kmh SW 10.1 mph16.3 kmh 30.50 in1032.8 mb 0.00 in0.0 mm 0.00 in0.0 mm 0.34 in8.6 mm
05:34 AM 50.2°F10.1°C 43.6°F6.4°C 78% 9.2 mph SW14.8 kmh SW 12.5 mph20.1 kmh 30.49 in1032.5 mb 0.00 in0.0 mm 0.00 in0.0 mm 0.34 in8.6 mm
05:32 AM 50.2°F10.1°C 44.3°F6.8°C 80% 10.3 mph SSW16.6 kmh SSW 12.5 mph20.1 kmh 30.50 in1032.8 mb 0.00 in0.0 mm 0.00 in0.0 mm 0.34 in8.6 mm
05:31 AM 50.2°F10.1°C 44.3°F6.8°C 80% 12.5 mph SSW20.1 kmh SSW 15.0 mph24.1 kmh 30.49 in1032.5 mb 0.00 in0.0 mm 0.00 in0.0 mm 0.34 in8.6 mm
05:30 AM 50.2°F10.1°C 44.3°F6.8°C 80% 6.5 mph SW10.5 kmh SW 10.1 mph16.3 kmh 30.49 in1032.5 mb 0.00 in0.0 mm 0.00 in0.0 mm 0.34 in8.6 mm
05:29 AM 50.2°F10.1°C 44.9°F7.2°C 82% 7.8 mph SW12.6 kmh SW 12.5 mph20.1 kmh 30.49 in1032.5 mb 0.00 in0.0 mm 0.00 in0.0 mm 0.34 in8.6 mm
05:28 AM 50.2°F10.1°C 45.2°F7.3°C 83% 10.7 mph SW17.2 kmh SW 12.5 mph20.1 kmh 30.50 in1032.8 mb 0.00 in0.0 mm 0.00 in0.0 mm 0.34 in8.6 mm
05:27 AM 50.2°F10.1°C 45.2°F7.3°C 83% 9.4 mph SW15.1 kmh SW 12.5 mph20.1 kmh 30.49 in1032.5 mb 0.00 in0.0 mm 0.00 in0.0 mm 0.34 in8.6 mm
05:26 AM 50.2°F10.1°C 45.6°F7.6°C 84% 3.4 mph WSW5.5 kmh WSW 7.6 mph12.2 kmh 30.49 in1032.5 mb 0.00 in0.0 mm 0.00 in0.0 mm 0.34 in8.6 mm
05:25 AM 50.2°F10.1°C 45.6°F7.6°C 84% 4.0 mph SW6.4 kmh SW 4.9 mph7.9 kmh 30.50 in1032.8 mb 0.00 in0.0 mm 0.00 in0.0 mm 0.34 in8.6 mm
05:23 AM 50.4°F10.2°C 45.7°F7.6°C 84% 8.1 mph S13.0 kmh S 10.1 mph16.3 kmh 30.49 in1032.5 mb 0.00 in0.0 mm 0.00 in0.0 mm 0.34 in8.6 mm
05:22 AM 50.4°F10.2°C 45.7°F7.6°C 84% 7.2 mph SW11.6 kmh SW 7.6 mph12.2 kmh 30.50 in1032.8 mb 0.00 in0.0 mm 0.00 in0.0 mm 0.34 in8.6 mm
05:21 AM 50.4°F10.2°C 45.4°F7.4°C 83% 9.4 mph S15.1 kmh S 12.5 mph20.1 kmh 30.49 in1032.5 mb 0.00 in0.0 mm 0.00 in0.0 mm 0.34 in8.6 mm
05:20 AM 50.4°F10.2°C 45.4°F7.4°C 83% 6.9 mph WSW11.1 kmh WSW 10.1 mph16.3 kmh 30.49 in1032.5 mb 0.00 in0.0 mm 0.00 in0.0 mm 0.34 in8.6 mm
05:19 AM 50.4°F10.2°C 45.4°F7.4°C 83% 7.2 mph SW11.6 kmh SW 10.1 mph16.3 kmh 30.49 in1032.5 mb 0.00 in0.0 mm 0.00 in0.0 mm 0.34 in8.6 mm
05:18 AM 50.4°F10.2°C 45.4°F7.4°C 83% 8.1 mph SW13.0 kmh SW 10.1 mph16.3 kmh 30.50 in1032.8 mb 0.00 in0.0 mm 0.00 in0.0 mm 0.34 in8.6 mm
05:17 AM 50.4°F10.2°C 45.4°F7.4°C 83% 9.6 mph SW15.4 kmh SW 12.5 mph20.1 kmh 30.49 in1032.5 mb 0.00 in0.0 mm 0.00 in0.0 mm 0.34 in8.6 mm
05:16 AM 50.4°F10.2°C 45.4°F7.4°C 83% 10.1 mph SW16.3 kmh SW 12.5 mph20.1 kmh 30.50 in1032.8 mb 0.00 in0.0 mm 0.00 in0.0 mm 0.34 in8.6 mm
05:14 AM 50.4°F10.2°C 45.4°F7.4°C 83% 7.6 mph SW12.2 kmh SW 10.1 mph16.3 kmh 30.48 in1032.2 mb 0.00 in0.0 mm 0.00 in0.0 mm 0.34 in8.6 mm
05:13 AM 50.4°F10.2°C 45.4°F7.4°C 83% 11.6 mph SSW18.7 kmh SSW 15.0 mph24.1 kmh 30.49 in1032.5 mb 0.00 in0.0 mm 0.00 in0.0 mm 0.34 in8.6 mm
05:12 AM 50.4°F10.2°C 45.4°F7.4°C 83% 10.7 mph SSW17.2 kmh SSW 12.5 mph20.1 kmh 30.49 in1032.5 mb 0.00 in0.0 mm 0.00 in0.0 mm 0.34 in8.6 mm
05:11 AM 50.4°F10.2°C 45.4°F7.4°C 83% 6.0 mph SW9.7 kmh SW 7.6 mph12.2 kmh 30.49 in1032.5 mb 0.00 in0.0 mm 0.00 in0.0 mm 0.34 in8.6 mm
05:10 AM 50.4°F10.2°C 45.1°F7.3°C 82% 8.7 mph SSW14.0 kmh SSW 15.0 mph24.1 kmh 30.48 in1032.2 mb 0.00 in0.0 mm 0.00 in0.0 mm 0.34 in8.6 mm
05:09 AM 50.4°F10.2°C 45.1°F7.3°C 82% 12.8 mph SW20.6 kmh SW 17.5 mph28.2 kmh 30.48 in1032.2 mb 0.00 in0.0 mm 0.00 in0.0 mm 0.34 in8.6 mm
05:08 AM 50.4°F10.2°C 45.4°F7.4°C 83% 9.6 mph SW15.4 kmh SW 10.1 mph16.3 kmh 30.48 in1032.2 mb 0.00 in0.0 mm 0.00 in0.0 mm 0.34 in8.6 mm
05:07 AM 50.4°F10.2°C 45.4°F7.4°C 83% 6.5 mph SW10.5 kmh SW 10.1 mph16.3 kmh 30.48 in1032.2 mb 0.00 in0.0 mm 0.00 in0.0 mm 0.34 in8.6 mm
05:04 AM 50.4°F10.2°C 45.4°F7.4°C 83% 8.7 mph SSW14.0 kmh SSW 10.1 mph16.3 kmh 30.48 in1032.2 mb 0.00 in0.0 mm 0.00 in0.0 mm 0.34 in8.6 mm
05:03 AM 50.4°F10.2°C 45.4°F7.4°C 83% 7.2 mph SW11.6 kmh SW 10.1 mph16.3 kmh 30.48 in1032.2 mb 0.00 in0.0 mm 0.00 in0.0 mm 0.34 in8.6 mm
05:02 AM 50.4°F10.2°C 45.7°F7.6°C 84% 7.8 mph SW12.6 kmh SW 10.1 mph16.3 kmh 30.48 in1032.2 mb 0.00 in0.0 mm 0.00 in0.0 mm 0.34 in8.6 mm
05:01 AM 50.5°F10.3°C 45.8°F7.7°C 84% 10.7 mph SSW17.2 kmh SSW 15.0 mph24.1 kmh 30.49 in1032.5 mb 0.00 in0.0 mm 0.00 in0.0 mm 0.34 in8.6 mm
05:00 AM 50.5°F10.3°C 45.8°F7.7°C 84% 6.5 mph SW10.5 kmh SW 7.6 mph12.2 kmh 30.48 in1032.2 mb 0.00 in0.0 mm 0.00 in0.0 mm 0.34 in8.6 mm
04:59 AM 50.5°F10.3°C 45.5°F7.5°C 83% 7.2 mph SSW11.6 kmh SSW 10.1 mph16.3 kmh 30.47 in1031.8 mb 0.00 in0.0 mm 0.00 in0.0 mm 0.34 in8.6 mm
04:58 AM 50.5°F10.3°C 45.5°F7.5°C 83% 9.2 mph SW14.8 kmh SW 10.1 mph16.3 kmh 30.47 in1031.8 mb 0.00 in0.0 mm 0.00 in0.0 mm 0.34 in8.6 mm
04:56 AM 50.5°F10.3°C 45.5°F7.5°C 83% 13.2 mph SW21.2 kmh SW 17.5 mph28.2 kmh 30.48 in1032.2 mb 0.00 in0.0 mm 0.00 in0.0 mm 0.34 in8.6 mm
04:55 AM 50.5°F10.3°C 45.5°F7.5°C 83% 8.7 mph SSE14.0 kmh SSE 10.1 mph16.3 kmh 30.48 in1032.2 mb 0.00 in0.0 mm 0.00 in0.0 mm 0.34 in8.6 mm
04:54 AM 50.5°F10.3°C 45.2°F7.3°C 82% 10.7 mph SW17.2 kmh SW 12.5 mph20.1 kmh 30.47 in1031.8 mb 0.00 in0.0 mm 0.00 in0.0 mm 0.34 in8.6 mm
04:53 AM 50.5°F10.3°C 45.2°F7.3°C 82% 6.5 mph SW10.5 kmh SW 7.6 mph12.2 kmh 30.48 in1032.2 mb 0.00 in0.0 mm 0.00 in0.0 mm 0.34 in8.6 mm
04:52 AM 50.5°F10.3°C 45.2°F7.3°C 82% 6.3 mph SSW10.1 kmh SSW 12.5 mph20.1 kmh 30.48 in1032.2 mb 0.00 in0.0 mm 0.00 in0.0 mm 0.34 in8.6 mm
04:51 AM 50.4°F10.2°C 45.1°F7.3°C 82% 6.9 mph WSW11.1 kmh WSW 10.1 mph16.3 kmh 30.48 in1032.2 mb 0.00 in0.0 mm 0.00 in0.0 mm 0.34 in8.6 mm
04:50 AM 50.4°F10.2°C 45.1°F7.3°C 82% 10.3 mph SW16.6 kmh SW 12.5 mph20.1 kmh 30.48 in1032.2 mb 0.00 in0.0 mm 0.00 in0.0 mm 0.34 in8.6 mm
04:49 AM 50.4°F10.2°C 45.1°F7.3°C 82% 11.6 mph SW18.7 kmh SW 17.5 mph28.2 kmh 30.48 in1032.2 mb 0.00 in0.0 mm 0.00 in0.0 mm 0.34 in8.6 mm
04:47 AM 50.4°F10.2°C 45.1°F7.3°C 82% 16.3 mph WSW26.2 kmh WSW 25.1 mph40.4 kmh 30.48 in1032.2 mb 0.00 in0.0 mm 0.00 in0.0 mm 0.34 in8.6 mm
04:46 AM 50.4°F10.2°C 45.1°F7.3°C 82% 11.9 mph W19.2 kmh W 15.0 mph24.1 kmh 30.48 in1032.2 mb 0.00 in0.0 mm 0.00 in0.0 mm 0.34 in8.6 mm
04:45 AM 50.4°F10.2°C 45.1°F7.3°C 82% 9.4 mph WSW15.1 kmh WSW 12.5 mph20.1 kmh 30.48 in1032.2 mb 0.00 in0.0 mm 0.00 in0.0 mm 0.34 in8.6 mm
04:44 AM 50.4°F10.2°C 45.1°F7.3°C 82% 13.9 mph SSW22.4 kmh SSW 20.1 mph32.3 kmh 30.47 in1031.8 mb 0.00 in0.0 mm 0.00 in0.0 mm 0.34 in8.6 mm
04:43 AM 50.4°F10.2°C 45.4°F7.4°C 83% 12.3 mph S19.8 kmh S 15.0 mph24.1 kmh 30.47 in1031.8 mb 0.00 in0.0 mm 0.00 in0.0 mm 0.34 in8.6 mm
04:42 AM 50.4°F10.2°C 45.4°F7.4°C 83% 10.7 mph SSW17.2 kmh SSW 12.5 mph20.1 kmh 30.48 in1032.2 mb 0.00 in0.0 mm 0.00 in0.0 mm 0.34 in8.6 mm
04:41 AM 50.4°F10.2°C 45.7°F7.6°C 84% 18.8 mph SW30.3 kmh SW 25.1 mph40.4 kmh 30.48 in1032.2 mb 0.00 in0.0 mm 0.00 in0.0 mm 0.34 in8.6 mm
04:40 AM 50.4°F10.2°C 45.7°F7.6°C 84% 9.2 mph SW14.8 kmh SW 10.1 mph16.3 kmh 30.47 in1031.8 mb 0.00 in0.0 mm 0.00 in0.0 mm 0.34 in8.6 mm
04:38 AM 50.4°F10.2°C 46.1°F7.8°C 85% 14.8 mph S23.8 kmh S 17.5 mph28.2 kmh 30.47 in1031.8 mb 0.00 in0.0 mm 0.00 in0.0 mm 0.34 in8.6 mm
04:37 AM 50.4°F10.2°C 46.1°F7.8°C 85% 12.8 mph SSW20.6 kmh SSW 15.0 mph24.1 kmh 30.47 in1031.8 mb 0.00 in0.0 mm 0.00 in0.0 mm 0.34 in8.6 mm
04:36 AM 50.5°F10.3°C 46.2°F7.9°C 85% 11.0 mph SW17.7 kmh SW 15.0 mph24.1 kmh 30.48 in1032.2 mb 0.00 in0.0 mm 0.00 in0.0 mm 0.34 in8.6 mm
04:35 AM 50.5°F10.3°C 45.8°F7.7°C 84% 6.3 mph SW10.1 kmh SW 7.6 mph12.2 kmh 30.47 in1031.8 mb 0.00 in0.0 mm 0.00 in0.0 mm 0.34 in8.6 mm
04:34 AM 50.5°F10.3°C 45.8°F7.7°C 84% 22.2 mph SW35.7 kmh SW 25.1 mph40.4 kmh 30.48 in1032.2 mb 0.00 in0.0 mm 0.00 in0.0 mm 0.34 in8.6 mm
04:33 AM 50.5°F10.3°C 46.2°F7.9°C 85% 15.7 mph SW25.3 kmh SW 22.6 mph36.4 kmh 30.47 in1031.8 mb 0.00 in0.0 mm 0.00 in0.0 mm 0.34 in8.6 mm
04:32 AM 50.5°F10.3°C 46.2°F7.9°C 85% 12.8 mph SSW20.6 kmh SSW 15.0 mph24.1 kmh 30.47 in1031.8 mb 0.00 in0.0 mm 0.00 in0.0 mm 0.34 in8.6 mm
04:31 AM 50.5°F10.3°C 46.5°F8.1°C 86% 15.7 mph SW25.3 kmh SW 20.1 mph32.3 kmh 30.47 in1031.8 mb 0.00 in0.0 mm 0.00 in0.0 mm 0.34 in8.6 mm
04:29 AM 50.5°F10.3°C 46.5°F8.1°C 86% 13.9 mph SW22.4 kmh SW 15.0 mph24.1 kmh 30.47 in1031.8 mb 0.00 in0.0 mm 0.00 in0.0 mm 0.34 in8.6 mm
04:28 AM 50.5°F10.3°C 46.5°F8.1°C 86% 14.1 mph SW22.7 kmh SW 20.1 mph32.3 kmh 30.47 in1031.8 mb 0.00 in0.0 mm 0.00 in0.0 mm 0.34 in8.6 mm
04:27 AM 50.5°F10.3°C 46.5°F8.1°C 86% 21.3 mph SW34.3 kmh SW 30.0 mph48.3 kmh 30.48 in1032.2 mb 0.00 in0.0 mm 0.00 in0.0 mm 0.34 in8.6 mm
04:26 AM 50.5°F10.3°C 46.5°F8.1°C 86% 11.6 mph SW18.7 kmh SW 12.5 mph20.1 kmh 30.47 in1031.8 mb 0.00 in0.0 mm 0.00 in0.0 mm 0.34 in8.6 mm
04:25 AM 50.5°F10.3°C 46.5°F8.1°C 86% 14.1 mph SW22.7 kmh SW 17.5 mph28.2 kmh 30.46 in1031.5 mb 0.00 in0.0 mm 0.00 in0.0 mm 0.34 in8.6 mm
04:24 AM 50.5°F10.3°C 46.8°F8.2°C 87% 9.4 mph SSW15.1 kmh SSW 17.5 mph28.2 kmh 30.47 in1031.8 mb 0.00 in0.0 mm 0.00 in0.0 mm 0.34 in8.6 mm
04:23 AM 50.5°F10.3°C 46.8°F8.2°C 87% 12.5 mph SW20.1 kmh SW 15.0 mph24.1 kmh 30.47 in1031.8 mb 0.00 in0.0 mm 0.00 in0.0 mm 0.34 in8.6 mm
04:22 AM 50.5°F10.3°C 46.5°F8.1°C 86% 12.8 mph SSW20.6 kmh SSW 17.5 mph28.2 kmh 30.46 in1031.5 mb 0.00 in0.0 mm 0.00 in0.0 mm 0.34 in8.6 mm
04:20 AM 50.5°F10.3°C 46.8°F8.2°C 87% 10.7 mph S17.2 kmh S 15.0 mph24.1 kmh 30.47 in1031.8 mb 0.00 in0.0 mm 0.00 in0.0 mm 0.34 in8.6 mm
04:19 AM 50.5°F10.3°C 46.8°F8.2°C 87% 14.1 mph SW22.7 kmh SW 17.5 mph28.2 kmh 30.46 in1031.5 mb 0.00 in0.0 mm 0.00 in0.0 mm 0.34 in8.6 mm
04:18 AM 50.5°F10.3°C 46.8°F8.2°C 87% 13.2 mph SW21.2 kmh SW 15.0 mph24.1 kmh 30.47 in1031.8 mb 0.00 in0.0 mm 0.00 in0.0 mm 0.34 in8.6 mm
04:17 AM 50.5°F10.3°C 46.8°F8.2°C 87% 9.4 mph SW15.1 kmh SW 20.1 mph32.3 kmh 30.46 in1031.5 mb 0.00 in0.0 mm 0.00 in0.0 mm 0.34 in8.6 mm
04:16 AM 50.5°F10.3°C 46.5°F8.1°C 86% 18.8 mph SW30.3 kmh SW 25.1 mph40.4 kmh 30.45 in1031.2 mb 0.00 in0.0 mm 0.00 in0.0 mm 0.34 in8.6 mm
04:14 AM 50.5°F10.3°C 46.2°F7.9°C 85% 11.9 mph SSW19.2 kmh SSW 17.5 mph28.2 kmh 30.45 in1031.2 mb 0.00 in0.0 mm 0.00 in0.0 mm 0.34 in8.6 mm
04:13 AM 50.5°F10.3°C 45.8°F7.7°C 84% 12.8 mph SSW20.6 kmh SSW 15.0 mph24.1 kmh 30.46 in1031.5 mb 0.00 in0.0 mm 0.00 in0.0 mm 0.34 in8.6 mm
04:11 AM 50.5°F10.3°C 45.8°F7.7°C 84% 8.5 mph SSW13.7 kmh SSW 10.1 mph16.3 kmh 30.46 in1031.5 mb 0.00 in0.0 mm 0.00 in0.0 mm 0.34 in8.6 mm
04:10 AM 50.5°F10.3°C 45.8°F7.7°C 84% 8.5 mph S13.7 kmh S 10.1 mph16.3 kmh 30.46 in1031.5 mb 0.00 in0.0 mm 0.00 in0.0 mm 0.34 in8.6 mm
04:09 AM 50.5°F10.3°C 45.8°F7.7°C 84% 18.1 mph SSW29.1 kmh SSW 22.6 mph36.4 kmh 30.42 in1030.1 mb 0.00 in0.0 mm 0.00 in0.0 mm 0.34 in8.6 mm
04:08 AM 50.5°F10.3°C 46.2°F7.9°C 85% 9.4 mph SW15.1 kmh SW 12.5 mph20.1 kmh 30.45 in1031.2 mb 0.00 in0.0 mm 0.00 in0.0 mm 0.34 in8.6 mm
04:07 AM 50.5°F10.3°C 46.2°F7.9°C 85% 11.2 mph SW18.0 kmh SW 12.5 mph20.1 kmh 30.45 in1031.2 mb 0.00 in0.0 mm 0.00 in0.0 mm 0.34 in8.6 mm
04:06 AM 50.5°F10.3°C 46.2°F7.9°C 85% 14.1 mph SSW22.7 kmh SSW 17.5 mph28.2 kmh 30.45 in1031.2 mb 0.00 in0.0 mm 0.00 in0.0 mm 0.34 in8.6 mm
04:05 AM 50.5°F10.3°C 46.2°F7.9°C 85% 33.6 mph SW54.1 kmh SW 35.1 mph56.5 kmh 30.45 in1031.2 mb 0.00 in0.0 mm 0.00 in0.0 mm 0.34 in8.6 mm
04:02 AM 50.5°F10.3°C 46.5°F8.1°C 86% 17.2 mph SW27.7 kmh SW 20.1 mph32.3 kmh 30.45 in1031.2 mb 0.00 in0.0 mm 0.00 in0.0 mm 0.34 in8.6 mm
04:01 AM 50.5°F10.3°C 46.5°F8.1°C 86% 11.2 mph SSW18.0 kmh SSW 15.0 mph24.1 kmh 30.45 in1031.2 mb 0.00 in0.0 mm 0.00 in0.0 mm 0.34 in8.6 mm
04:00 AM 50.5°F10.3°C 46.5°F8.1°C 86% 22.2 mph S35.7 kmh S 27.5 mph44.3 kmh 30.42 in1030.1 mb 0.00 in0.0 mm 0.00 in0.0 mm 0.34 in8.6 mm
03:59 AM 50.5°F10.3°C 46.5°F8.1°C 86% 12.3 mph SW19.8 kmh SW 15.0 mph24.1 kmh 30.44 in1030.8 mb 0.00 in0.0 mm 0.00 in0.0 mm 0.34 in8.6 mm
03:58 AM 50.5°F10.3°C 46.8°F8.2°C 87% 20.4 mph SSW32.8 kmh SSW 22.6 mph36.4 kmh 30.44 in1030.8 mb 0.00 in0.0 mm 0.00 in0.0 mm 0.34 in8.6 mm
03:57 AM 50.5°F10.3°C 46.8°F8.2°C 87% 19.7 mph S31.7 kmh S 25.1 mph40.4 kmh 30.45 in1031.2 mb 0.00 in0.0 mm 0.00 in0.0 mm 0.34 in8.6 mm
03:56 AM 50.5°F10.3°C 47.1°F8.4°C 88% 20.1 mph SSW32.3 kmh SSW 22.6 mph36.4 kmh 30.44 in1030.8 mb 0.00 in0.0 mm 0.00 in0.0 mm 0.34 in8.6 mm
03:55 AM 50.5°F10.3°C 47.1°F8.4°C 88% 16.6 mph SSW26.7 kmh SSW 20.1 mph32.3 kmh 30.44 in1030.8 mb 0.00 in0.0 mm 0.00 in0.0 mm 0.34 in8.6 mm
03:53 AM 50.5°F10.3°C 47.4°F8.6°C 89% 16.6 mph SW26.7 kmh SW 25.1 mph40.4 kmh 30.45 in1031.2 mb 0.00 in0.0 mm 0.00 in0.0 mm 0.34 in8.6 mm
03:52 AM 50.5°F10.3°C 47.1°F8.4°C 88% 9.4 mph SW15.1 kmh SW 12.5 mph20.1 kmh 30.45 in1031.2 mb 0.00 in0.0 mm 0.00 in0.0 mm 0.34 in8.6 mm
03:51 AM 50.5°F10.3°C 47.1°F8.4°C 88% 15.0 mph SW24.1 kmh SW 17.5 mph28.2 kmh 30.44 in1030.8 mb 0.00 in0.0 mm 0.00 in0.0 mm 0.34 in8.6 mm
03:50 AM 50.5°F10.3°C 47.1°F8.4°C 88% 21.7 mph SW34.9 kmh SW 30.0 mph48.3 kmh 30.44 in1030.8 mb 0.00 in0.0 mm 0.00 in0.0 mm 0.34 in8.6 mm
03:49 AM 50.5°F10.3°C 47.1°F8.4°C 88% 10.3 mph SW16.6 kmh SW 15.0 mph24.1 kmh 30.44 in1030.8 mb 0.00 in0.0 mm 0.00 in0.0 mm 0.34 in8.6 mm
03:48 AM 50.5°F10.3°C 47.1°F8.4°C 88% 14.3 mph S23.0 kmh S 22.6 mph36.4 kmh 30.44 in1030.8 mb 0.07 in1.8 mm 0.00 in0.0 mm 0.34 in8.6 mm
03:47 AM 50.5°F10.3°C 47.4°F8.6°C 89% 21.0 mph SW33.8 kmh SW 25.1 mph40.4 kmh 30.44 in1030.8 mb 0.07 in1.8 mm 0.00 in0.0 mm 0.34 in8.6 mm
03:46 AM 50.5°F10.3°C 47.4°F8.6°C 89% 17.9 mph SSE28.8 kmh SSE 22.6 mph36.4 kmh 30.44 in1030.8 mb 0.07 in1.8 mm 0.00 in0.0 mm 0.34 in8.6 mm
03:44 AM 50.5°F10.3°C 47.4°F8.6°C 89% 9.4 mph SW15.1 kmh SW 15.0 mph24.1 kmh 30.44 in1030.8 mb 0.07 in1.8 mm 0.00 in0.0 mm 0.34 in8.6 mm
03:43 AM 50.5°F10.3°C 47.4°F8.6°C 89% 11.0 mph SW17.7 kmh SW 12.5 mph20.1 kmh 30.43 in1030.5 mb 0.07 in1.8 mm 0.00 in0.0 mm 0.34 in8.6 mm
03:42 AM 50.5°F10.3°C 47.4°F8.6°C 89% 11.9 mph S19.2 kmh S 17.5 mph28.2 kmh 30.44 in1030.8 mb 0.07 in1.8 mm 0.00 in0.0 mm 0.34 in8.6 mm
03:41 AM 50.5°F10.3°C 47.7°F8.7°C 90% 17.0 mph SSW27.4 kmh SSW 20.1 mph32.3 kmh 30.43 in1030.5 mb 0.07 in1.8 mm 0.00 in0.0 mm 0.34 in8.6 mm
03:40 AM 50.7°F10.4°C 48.2°F9.0°C 91% 12.5 mph S20.1 kmh S 15.0 mph24.1 kmh 30.43 in1030.5 mb 0.07 in1.8 mm 4.20 in106.7 mm 0.34 in8.6 mm
03:39 AM 50.7°F10.4°C 48.2°F9.0°C 91% 11.9 mph SW19.2 kmh SW 17.5 mph28.2 kmh 30.43 in1030.5 mb 0.00 in0.0 mm 0.00 in0.0 mm 0.33 in8.4 mm
03:38 AM 50.7°F10.4°C 48.2°F9.0°C 91% 16.3 mph SW26.2 kmh SW 17.5 mph28.2 kmh 30.44 in1030.8 mb 0.00 in0.0 mm 0.00 in0.0 mm 0.33 in8.4 mm
03:37 AM 50.7°F10.4°C 48.2°F9.0°C 91% 16.6 mph SW26.7 kmh SW 22.6 mph36.4 kmh 30.43 in1030.5 mb 0.00 in0.0 mm 0.00 in0.0 mm 0.33 in8.4 mm
03:35 AM 50.7°F10.4°C 48.2°F9.0°C 91% 9.4 mph SSW15.1 kmh SSW 10.1 mph16.3 kmh 30.43 in1030.5 mb 0.00 in0.0 mm 0.00 in0.0 mm 0.33 in8.4 mm
03:34 AM 50.7°F10.4°C 48.2°F9.0°C 91% 14.1 mph SW22.7 kmh SW 17.5 mph28.2 kmh 30.43 in1030.5 mb 0.00 in0.0 mm 0.00 in0.0 mm 0.33 in8.4 mm
03:33 AM 50.7°F10.4°C 48.2°F9.0°C 91% 9.4 mph SSW15.1 kmh SSW 12.5 mph20.1 kmh 30.43 in1030.5 mb 0.00 in0.0 mm 0.00 in0.0 mm 0.33 in8.4 mm
03:32 AM 50.9°F10.5°C 48.4°F9.1°C 91% 15.0 mph SSW24.1 kmh SSW 17.5 mph28.2 kmh 30.42 in1030.1 mb 0.00 in0.0 mm 0.00 in0.0 mm 0.33 in8.4 mm
03:31 AM 50.9°F10.5°C 48.4°F9.1°C 91% 13.2 mph SSW21.2 kmh SSW 17.5 mph28.2 kmh 30.42 in1030.1 mb 0.00 in0.0 mm 0.00 in0.0 mm 0.33 in8.4 mm
03:30 AM 50.9°F10.5°C 48.1°F8.9°C 90% 11.2 mph S18.0 kmh S 15.0 mph24.1 kmh 30.42 in1030.1 mb 0.00 in0.0 mm 0.00 in0.0 mm 0.33 in8.4 mm
03:29 AM 50.9°F10.5°C 48.1°F8.9°C 90% 11.9 mph SW19.2 kmh SW 15.0 mph24.1 kmh 30.42 in1030.1 mb 0.00 in0.0 mm 0.00 in0.0 mm 0.33 in8.4 mm
03:28 AM 50.9°F10.5°C 48.4°F9.1°C 91% 7.8 mph WSW12.6 kmh WSW 12.5 mph20.1 kmh 30.42 in1030.1 mb 0.00 in0.0 mm 0.00 in0.0 mm 0.33 in8.4 mm
03:26 AM 50.9°F10.5°C 48.4°F9.1°C 91% 11.6 mph SW18.7 kmh SW 17.5 mph28.2 kmh 30.43 in1030.5 mb 0.00 in0.0 mm 0.00 in0.0 mm 0.33 in8.4 mm
03:25 AM 50.9°F10.5°C 48.4°F9.1°C 91% 14.3 mph SW23.0 kmh SW 17.5 mph28.2 kmh 30.42 in1030.1 mb 0.00 in0.0 mm 0.00 in0.0 mm 0.33 in8.4 mm
03:24 AM 50.9°F10.5°C 48.4°F9.1°C 91% 20.1 mph SW32.3 kmh SW 22.6 mph36.4 kmh 30.42 in1030.1 mb 0.00 in0.0 mm 0.00 in0.0 mm 0.33 in8.4 mm
03:23 AM 51.1°F10.6°C 48.9°F9.4°C 92% 9.2 mph SW14.8 kmh SW 12.5 mph20.1 kmh 30.43 in1030.5 mb 0.00 in0.0 mm 0.00 in0.0 mm 0.33 in8.4 mm
03:22 AM 51.1°F10.6°C 48.9°F9.4°C 92% 12.5 mph SSW20.1 kmh SSW 15.0 mph24.1 kmh 30.42 in1030.1 mb 0.00 in0.0 mm 0.00 in0.0 mm 0.33 in8.4 mm
03:21 AM 51.1°F10.6°C 48.9°F9.4°C 92% 6.0 mph SSW9.7 kmh SSW 7.6 mph12.2 kmh 30.42 in1030.1 mb 0.00 in0.0 mm 0.00 in0.0 mm 0.33 in8.4 mm
03:19 AM 51.1°F10.6°C 48.6°F9.2°C 91% 5.4 mph SSW8.7 kmh SSW 7.6 mph12.2 kmh 30.42 in1030.1 mb 0.00 in0.0 mm 0.00 in0.0 mm 0.33 in8.4 mm
03:17 AM 51.1°F10.6°C 48.6°F9.2°C 91% 13.4 mph S21.6 kmh S 15.0 mph24.1 kmh 30.42 in1030.1 mb 0.00 in0.0 mm 0.00 in0.0 mm 0.33 in8.4 mm
03:16 AM 51.3°F10.7°C 48.5°F9.2°C 90% 10.7 mph SW17.2 kmh SW 12.5 mph20.1 kmh 30.42 in1030.1 mb 0.00 in0.0 mm 0.00 in0.0 mm 0.33 in8.4 mm
03:15 AM 51.3°F10.7°C 48.5°F9.2°C 90% 9.4 mph SW15.1 kmh SW 17.5 mph28.2 kmh 30.42 in1030.1 mb 0.00 in0.0 mm 0.00 in0.0 mm 0.33 in8.4 mm
03:14 AM 51.3°F10.7°C 48.5°F9.2°C 90% 11.9 mph SW19.2 kmh SW 12.5 mph20.1 kmh 30.42 in1030.1 mb 0.00 in0.0 mm 0.00 in0.0 mm 0.33 in8.4 mm
03:13 AM 51.3°F10.7°C 48.5°F9.2°C 90% 10.7 mph SW17.2 kmh SW 12.5 mph20.1 kmh 30.41 in1029.8 mb 0.00 in0.0 mm 0.00 in0.0 mm 0.33 in8.4 mm
03:12 AM 51.3°F10.7°C 48.2°F9.0°C 89% 12.8 mph SW20.6 kmh SW 20.1 mph32.3 kmh 30.42 in1030.1 mb 0.00 in0.0 mm 0.00 in0.0 mm 0.33 in8.4 mm
03:11 AM 51.3°F10.7°C 48.2°F9.0°C 89% 10.1 mph S16.3 kmh S 12.5 mph20.1 kmh 30.42 in1030.1 mb 0.00 in0.0 mm 0.00 in0.0 mm 0.33 in8.4 mm
03:10 AM 51.3°F10.7°C 47.9°F8.8°C 88% 12.8 mph SSW20.6 kmh SSW 17.5 mph28.2 kmh 30.42 in1030.1 mb 0.00 in0.0 mm 0.00 in0.0 mm 0.33 in8.4 mm
03:08 AM 51.3°F10.7°C 47.9°F8.8°C 88% 4.5 mph W7.2 kmh W 7.6 mph12.2 kmh 30.42 in1030.1 mb 0.00 in0.0 mm 0.00 in0.0 mm 0.33 in8.4 mm
03:07 AM 51.3°F10.7°C 48.2°F9.0°C 89% 11.0 mph SSW17.7 kmh SSW 12.5 mph20.1 kmh 30.41 in1029.8 mb 0.00 in0.0 mm 0.00 in0.0 mm 0.33 in8.4 mm
03:06 AM 51.3°F10.7°C 48.2°F9.0°C 89% 10.7 mph S17.2 kmh S 12.5 mph20.1 kmh 30.41 in1029.8 mb 0.00 in0.0 mm 0.00 in0.0 mm 0.33 in8.4 mm
03:05 AM 51.3°F10.7°C 48.2°F9.0°C 89% 14.3 mph S23.0 kmh S 20.1 mph32.3 kmh 30.41 in1029.8 mb 0.00 in0.0 mm 0.00 in0.0 mm 0.33 in8.4 mm
03:04 AM 51.3°F10.7°C 48.2°F9.0°C 89% 8.7 mph SSW14.0 kmh SSW 10.1 mph16.3 kmh 30.42 in1030.1 mb 0.00 in0.0 mm 0.00 in0.0 mm 0.33 in8.4 mm
03:03 AM 51.3°F10.7°C 48.2°F9.0°C 89% 12.8 mph SW20.6 kmh SW 15.0 mph24.1 kmh 30.41 in1029.8 mb 0.00 in0.0 mm 0.00 in0.0 mm 0.33 in8.4 mm
03:02 AM 51.3°F10.7°C 48.2°F9.0°C 89% 21.7 mph SSW34.9 kmh SSW 25.1 mph40.4 kmh 30.41 in1029.8 mb 0.00 in0.0 mm 0.00 in0.0 mm 0.33 in8.4 mm
03:01 AM 51.3°F10.7°C 48.2°F9.0°C 89% 9.6 mph SSW15.4 kmh SSW 12.5 mph20.1 kmh 30.41 in1029.8 mb 0.00 in0.0 mm 0.00 in0.0 mm 0.33 in8.4 mm
02:59 AM 51.3°F10.7°C 48.5°F9.2°C 90% 3.1 mph SW5.0 kmh SW 4.9 mph7.9 kmh 30.41 in1029.8 mb 0.00 in0.0 mm 0.00 in0.0 mm 0.33 in8.4 mm
02:58 AM 51.3°F10.7°C 48.5°F9.2°C 90% 14.1 mph SSW22.7 kmh SSW 17.5 mph28.2 kmh 30.41 in1029.8 mb 0.00 in0.0 mm 0.00 in0.0 mm 0.33 in8.4 mm
02:57 AM 51.3°F10.7°C 48.5°F9.2°C 90% 12.5 mph SSW20.1 kmh SSW 15.0 mph24.1 kmh 30.41 in1029.8 mb 0.00 in0.0 mm 0.00 in0.0 mm 0.33 in8.4 mm
02:56 AM 51.3°F10.7°C 48.2°F9.0°C 89% 7.2 mph SW11.6 kmh SW 12.5 mph20.1 kmh 30.40 in1029.5 mb 0.00 in0.0 mm 0.00 in0.0 mm 0.33 in8.4 mm
02:55 AM 51.3°F10.7°C 48.2°F9.0°C 89% 9.6 mph SSW15.4 kmh SSW 12.5 mph20.1 kmh 30.40 in1029.5 mb 0.00 in0.0 mm 0.00 in0.0 mm 0.33 in8.4 mm
02:54 AM 51.3°F10.7°C 48.5°F9.2°C 90% 22.6 mph SSW36.4 kmh SSW 27.5 mph44.3 kmh 30.40 in1029.5 mb 0.00 in0.0 mm 0.00 in0.0 mm 0.33 in8.4 mm
02:53 AM 51.3°F10.7°C 48.2°F9.0°C 89% 13.4 mph S21.6 kmh S 15.0 mph24.1 kmh 30.40 in1029.5 mb 0.00 in0.0 mm 0.00 in0.0 mm 0.33 in8.4 mm
02:52 AM 51.3°F10.7°C 48.2°F9.0°C 89% 15.7 mph SW25.3 kmh SW 17.5 mph28.2 kmh 30.40 in1029.5 mb 0.00 in0.0 mm 0.00 in0.0 mm 0.33 in8.4 mm
02:50 AM 51.3°F10.7°C 48.5°F9.2°C 90% 19.0 mph SSW30.6 kmh SSW 22.6 mph36.4 kmh 30.39 in1029.1 mb 0.00 in0.0 mm 0.00 in0.0 mm 0.33 in8.4 mm
02:49 AM 51.3°F10.7°C 48.5°F9.2°C 90% 12.5 mph SW20.1 kmh SW 12.5 mph20.1 kmh 30.40 in1029.5 mb 0.00 in0.0 mm 0.00 in0.0 mm 0.33 in8.4 mm
02:48 AM 51.3°F10.7°C 48.5°F9.2°C 90% 12.8 mph SSW20.6 kmh SSW 17.5 mph28.2 kmh 30.40 in1029.5 mb 0.00 in0.0 mm 0.00 in0.0 mm 0.33 in8.4 mm
02:47 AM 51.3°F10.7°C 48.5°F9.2°C 90% 14.3 mph SW23.0 kmh SW 20.1 mph32.3 kmh 30.40 in1029.5 mb 0.00 in0.0 mm 0.00 in0.0 mm 0.33 in8.4 mm
02:46 AM 51.3°F10.7°C 48.5°F9.2°C 90% 15.7 mph SW25.3 kmh SW 20.1 mph32.3 kmh 30.38 in1028.8 mb 0.00 in0.0 mm 0.00 in0.0 mm 0.33 in8.4 mm
02:45 AM 51.3°F10.7°C 48.5°F9.2°C 90% 14.1 mph SSW22.7 kmh SSW 27.5 mph44.3 kmh 30.40 in1029.5 mb 0.00 in0.0 mm 0.00 in0.0 mm 0.33 in8.4 mm
02:44 AM 51.3°F10.7°C 48.5°F9.2°C 90% 17.9 mph S28.8 kmh S 20.1 mph32.3 kmh 30.40 in1029.5 mb 0.00 in0.0 mm 0.00 in0.0 mm 0.33 in8.4 mm
02:43 AM 51.3°F10.7°C 48.8°F9.3°C 91% 8.1 mph S13.0 kmh S 12.5 mph20.1 kmh 30.39 in1029.1 mb 0.00 in0.0 mm 0.00 in0.0 mm 0.33 in8.4 mm
02:41 AM 51.3°F10.7°C 48.8°F9.3°C 91% 16.3 mph NW26.2 kmh NW 22.6 mph36.4 kmh 30.39 in1029.1 mb 0.00 in0.0 mm 0.00 in0.0 mm 0.33 in8.4 mm
02:40 AM 51.4°F10.8°C 48.9°F9.4°C 91% 9.6 mph SW15.4 kmh SW 12.5 mph20.1 kmh 30.40 in1029.5 mb 0.00 in0.0 mm 0.00 in0.0 mm 0.33 in8.4 mm
02:39 AM 51.4°F10.8°C 48.9°F9.4°C 91% 26.4 mph SSW42.5 kmh SSW 30.0 mph48.3 kmh 30.38 in1028.8 mb 0.00 in0.0 mm 0.00 in0.0 mm 0.33 in8.4 mm
02:38 AM 51.4°F10.8°C 48.6°F9.2°C 90% 10.3 mph SW16.6 kmh SW 12.5 mph20.1 kmh 30.38 in1028.8 mb 0.00 in0.0 mm 0.00 in0.0 mm 0.33 in8.4 mm
02:37 AM 51.4°F10.8°C 48.6°F9.2°C 90% 14.8 mph S23.8 kmh S 17.5 mph28.2 kmh 30.39 in1029.1 mb 0.00 in0.0 mm 0.00 in0.0 mm 0.33 in8.4 mm
02:36 AM 51.4°F10.8°C 48.6°F9.2°C 90% 19.0 mph SSW30.6 kmh SSW 22.6 mph36.4 kmh 30.38 in1028.8 mb 0.00 in0.0 mm 0.00 in0.0 mm 0.33 in8.4 mm
02:35 AM 51.4°F10.8°C 48.6°F9.2°C 90% 14.8 mph SSW23.8 kmh SSW 17.5 mph28.2 kmh 30.38 in1028.8 mb 0.00 in0.0 mm 0.00 in0.0 mm 0.33 in8.4 mm
02:34 AM 51.4°F10.8°C 48.6°F9.2°C 90% 8.7 mph SSW14.0 kmh SSW 10.1 mph16.3 kmh 30.39 in1029.1 mb 0.00 in0.0 mm 0.00 in0.0 mm 0.33 in8.4 mm
02:32 AM 51.4°F10.8°C 48.3°F9.1°C 89% 8.7 mph SSE14.0 kmh SSE 10.1 mph16.3 kmh 30.38 in1028.8 mb 0.00 in0.0 mm 0.00 in0.0 mm 0.33 in8.4 mm
02:31 AM 51.6°F10.9°C 48.8°F9.3°C 90% 15.7 mph SW25.3 kmh SW 20.1 mph32.3 kmh 30.37 in1028.4 mb 0.00 in0.0 mm 0.00 in0.0 mm 0.33 in8.4 mm
02:30 AM 51.6°F10.9°C 48.8°F9.3°C 90% 11.6 mph SW18.7 kmh SW 12.5 mph20.1 kmh 30.37 in1028.4 mb 0.00 in0.0 mm 0.00 in0.0 mm 0.33 in8.4 mm
02:29 AM 51.6°F10.9°C 48.8°F9.3°C 90% 17.0 mph SW27.4 kmh SW 22.6 mph36.4 kmh 30.38 in1028.8 mb 0.00 in0.0 mm 0.00 in0.0 mm 0.33 in8.4 mm
02:28 AM 51.6°F10.9°C 49.1°F9.5°C 91% 10.7 mph SW17.2 kmh SW 12.5 mph20.1 kmh 30.37 in1028.4 mb 0.00 in0.0 mm 0.00 in0.0 mm 0.33 in8.4 mm
02:27 AM 51.6°F10.9°C 49.1°F9.5°C 91% 8.1 mph SW13.0 kmh SW 15.0 mph24.1 kmh 30.38 in1028.8 mb 0.00 in0.0 mm 0.00 in0.0 mm 0.33 in8.4 mm
02:26 AM 51.6°F10.9°C 49.1°F9.5°C 91% 18.1 mph SW29.1 kmh SW 25.1 mph40.4 kmh 30.38 in1028.8 mb 0.00 in0.0 mm 0.00 in0.0 mm 0.33 in8.4 mm
02:25 AM 51.6°F10.9°C 49.1°F9.5°C 91% 12.8 mph SW20.6 kmh SW 17.5 mph28.2 kmh 30.37 in1028.4 mb 0.00 in0.0 mm 0.00 in0.0 mm 0.33 in8.4 mm
02:23 AM 51.8°F11.0°C 49.5°F9.7°C 92% 21.9 mph SSW35.2 kmh SSW 30.0 mph48.3 kmh 30.37 in1028.4 mb 0.00 in0.0 mm 0.00 in0.0 mm 0.33 in8.4 mm
02:22 AM 51.8°F11.0°C 49.5°F9.7°C 92% 26.6 mph SW42.8 kmh SW 30.0 mph48.3 kmh 30.37 in1028.4 mb 0.00 in0.0 mm 0.00 in0.0 mm 0.33 in8.4 mm
02:21 AM 51.8°F11.0°C 49.3°F9.6°C 91% 17.0 mph SW27.4 kmh SW 30.0 mph48.3 kmh 30.37 in1028.4 mb 0.00 in0.0 mm 0.00 in0.0 mm 0.33 in8.4 mm
02:20 AM 51.8°F11.0°C 49.3°F9.6°C 91% 27.3 mph SSW43.9 kmh SSW 32.7 mph52.6 kmh 30.37 in1028.4 mb 0.00 in0.0 mm 0.00 in0.0 mm 0.33 in8.4 mm
02:19 AM 51.8°F11.0°C 49.3°F9.6°C 91% 17.5 mph S28.2 kmh S 20.1 mph32.3 kmh 30.37 in1028.4 mb 0.00 in0.0 mm 0.00 in0.0 mm 0.33 in8.4 mm
02:18 AM 51.8°F11.0°C 49.0°F9.4°C 90% 24.8 mph SW39.9 kmh SW 30.0 mph48.3 kmh 30.37 in1028.4 mb 0.00 in0.0 mm 0.00 in0.0 mm 0.33 in8.4 mm
02:17 AM 51.8°F11.0°C 49.0°F9.4°C 90% 17.0 mph SSW27.4 kmh SSW 20.1 mph32.3 kmh 30.36 in1028.1 mb 0.00 in0.0 mm 0.00 in0.0 mm 0.33 in8.4 mm
02:16 AM 51.8°F11.0°C 49.0°F9.4°C 90% 22.2 mph S35.7 kmh S 27.5 mph44.3 kmh 30.37 in1028.4 mb 0.00 in0.0 mm 0.00 in0.0 mm 0.33 in8.4 mm
02:14 AM 51.8°F11.0°C 49.0°F9.4°C 90% 19.0 mph SW30.6 kmh SW 22.6 mph36.4 kmh 30.37 in1028.4 mb 0.00 in0.0 mm 0.00 in0.0 mm 0.33 in8.4 mm
02:13 AM 51.8°F11.0°C 49.0°F9.4°C 90% 21.3 mph SW34.3 kmh SW 27.5 mph44.3 kmh 30.36 in1028.1 mb 0.00 in0.0 mm 0.00 in0.0 mm 0.33 in8.4 mm
02:12 AM 51.8°F11.0°C 49.3°F9.6°C 91% 9.4 mph SW15.1 kmh SW 12.5 mph20.1 kmh 30.37 in1028.4 mb 0.00 in0.0 mm 0.00 in0.0 mm 0.33 in8.4 mm
02:11 AM 51.8°F11.0°C 49.3°F9.6°C 91% 14.3 mph S23.0 kmh S 20.1 mph32.3 kmh 30.37 in1028.4 mb 0.00 in0.0 mm 0.00 in0.0 mm 0.33 in8.4 mm
02:10 AM 51.8°F11.0°C 49.3°F9.6°C 91% 15.4 mph SW24.8 kmh SW 20.1 mph32.3 kmh 30.36 in1028.1 mb 0.00 in0.0 mm 0.00 in0.0 mm 0.33 in8.4 mm
02:09 AM 52.0°F11.1°C 49.5°F9.7°C 91% 15.0 mph SW24.1 kmh SW 20.1 mph32.3 kmh 30.37 in1028.4 mb 0.00 in0.0 mm 0.00 in0.0 mm 0.33 in8.4 mm
02:08 AM 52.0°F11.1°C 49.5°F9.7°C 91% 12.3 mph WSW19.8 kmh WSW 17.5 mph28.2 kmh 30.37 in1028.4 mb 0.00 in0.0 mm 0.00 in0.0 mm 0.33 in8.4 mm
02:07 AM 52.0°F11.1°C 49.5°F9.7°C 91% 14.3 mph S23.0 kmh S 17.5 mph28.2 kmh 30.35 in1027.8 mb 0.00 in0.0 mm 0.00 in0.0 mm 0.33 in8.4 mm
02:05 AM 52.0°F11.1°C 49.2°F9.6°C 90% 28.9 mph SW46.5 kmh SW 30.0 mph48.3 kmh 30.36 in1028.1 mb 0.00 in0.0 mm 0.00 in0.0 mm 0.33 in8.4 mm
02:04 AM 52.0°F11.1°C 49.5°F9.7°C 91% 21.9 mph SW35.2 kmh SW 27.5 mph44.3 kmh 30.37 in1028.4 mb 0.00 in0.0 mm 0.00 in0.0 mm 0.33 in8.4 mm
02:03 AM 52.0°F11.1°C 49.2°F9.6°C 90% 13.2 mph SSW21.2 kmh SSW 17.5 mph28.2 kmh 30.36 in1028.1 mb 0.00 in0.0 mm 0.00 in0.0 mm 0.33 in8.4 mm
02:02 AM 52.0°F11.1°C 49.2°F9.6°C 90% 9.6 mph SW15.4 kmh SW 12.5 mph20.1 kmh 30.36 in1028.1 mb 0.00 in0.0 mm 0.00 in0.0 mm 0.33 in8.4 mm
02:01 AM 52.0°F11.1°C 49.2°F9.6°C 90% 15.0 mph S24.1 kmh S 20.1 mph32.3 kmh 30.36 in1028.1 mb 0.00 in0.0 mm 0.00 in0.0 mm 0.33 in8.4 mm
02:00 AM 52.0°F11.1°C 49.2°F9.6°C 90% 21.9 mph SSW35.2 kmh SSW 30.0 mph48.3 kmh 30.36 in1028.1 mb 0.00 in0.0 mm 0.00 in0.0 mm 0.33 in8.4 mm
01:59 AM 52.0°F11.1°C 49.2°F9.6°C 90% 32.0 mph SSW51.5 kmh SSW 40.0 mph64.4 kmh 30.35 in1027.8 mb 0.00 in0.0 mm 0.00 in0.0 mm 0.33 in8.4 mm
01:58 AM 52.0°F11.1°C 49.5°F9.7°C 91% 11.6 mph SW18.7 kmh SW 17.5 mph28.2 kmh 30.35 in1027.8 mb 0.00 in0.0 mm 0.00 in0.0 mm 0.33 in8.4 mm
01:56 AM 52.0°F11.1°C 49.5°F9.7°C 91% 23.3 mph SW37.5 kmh SW 30.0 mph48.3 kmh 30.35 in1027.8 mb 0.00 in0.0 mm 0.00 in0.0 mm 0.33 in8.4 mm
01:55 AM 52.0°F11.1°C 49.5°F9.7°C 91% 8.5 mph SW13.7 kmh SW 10.1 mph16.3 kmh 30.36 in1028.1 mb 0.00 in0.0 mm 0.00 in0.0 mm 0.33 in8.4 mm
01:54 AM 52.0°F11.1°C 49.5°F9.7°C 91% 19.0 mph S30.6 kmh S 22.6 mph36.4 kmh 30.35 in1027.8 mb 0.00 in0.0 mm 0.00 in0.0 mm 0.33 in8.4 mm
01:53 AM 52.0°F11.1°C 49.7°F9.8°C 92% 23.3 mph SW37.5 kmh SW 25.1 mph40.4 kmh 30.34 in1027.4 mb 0.00 in0.0 mm 0.00 in0.0 mm 0.33 in8.4 mm
01:52 AM 52.0°F11.1°C 49.7°F9.8°C 92% 13.4 mph SW21.6 kmh SW 17.5 mph28.2 kmh 30.35 in1027.8 mb 0.00 in0.0 mm 0.00 in0.0 mm 0.33 in8.4 mm
01:51 AM 52.0°F11.1°C 49.7°F9.8°C 92% 6.5 mph SSW10.5 kmh SSW 15.0 mph24.1 kmh 30.35 in1027.8 mb 0.00 in0.0 mm 0.00 in0.0 mm 0.33 in8.4 mm
01:50 AM 52.0°F11.1°C 49.7°F9.8°C 92% 13.9 mph SW22.4 kmh SW 17.5 mph28.2 kmh 30.35 in1027.8 mb 0.00 in0.0 mm 0.00 in0.0 mm 0.33 in8.4 mm
01:49 AM 52.0°F11.1°C 49.7°F9.8°C 92% 11.0 mph SSW17.7 kmh SSW 17.5 mph28.2 kmh 30.35 in1027.8 mb 0.00 in0.0 mm 0.00 in0.0 mm 0.33 in8.4 mm
01:47 AM 52.2°F11.2°C 49.9°F9.9°C 92% 10.7 mph SSW17.2 kmh SSW 15.0 mph24.1 kmh 30.35 in1027.8 mb 0.00 in0.0 mm 0.00 in0.0 mm 0.33 in8.4 mm
01:45 AM 52.2°F11.2°C 49.9°F9.9°C 92% 14.3 mph SSW23.0 kmh SSW 17.5 mph28.2 kmh 30.35 in1027.8 mb 0.00 in0.0 mm 0.00 in0.0 mm 0.33 in8.4 mm
01:44 AM 52.2°F11.2°C 49.9°F9.9°C 92% 7.6 mph SSW12.2 kmh SSW 10.1 mph16.3 kmh 30.35 in1027.8 mb 0.00 in0.0 mm 0.00 in0.0 mm 0.33 in8.4 mm
01:43 AM 52.2°F11.2°C 49.9°F9.9°C 92% 21.7 mph S34.9 kmh S 30.0 mph48.3 kmh 30.34 in1027.4 mb 0.00 in0.0 mm 0.00 in0.0 mm 0.33 in8.4 mm
01:42 AM 52.2°F11.2°C 49.9°F9.9°C 92% 10.7 mph WSW17.2 kmh WSW 17.5 mph28.2 kmh 30.35 in1027.8 mb 0.00 in0.0 mm 0.00 in0.0 mm 0.33 in8.4 mm
01:41 AM 52.2°F11.2°C 49.9°F9.9°C 92% 11.0 mph SW17.7 kmh SW 12.5 mph20.1 kmh 30.35 in1027.8 mb 0.00 in0.0 mm 0.00 in0.0 mm 0.33 in8.4 mm
01:40 AM 52.2°F11.2°C 49.9°F9.9°C 92% 7.8 mph S12.6 kmh S 10.1 mph16.3 kmh 30.35 in1027.8 mb 0.00 in0.0 mm 0.00 in0.0 mm 0.33 in8.4 mm
01:38 AM 52.2°F11.2°C 49.9°F9.9°C 92% 26.0 mph SW41.8 kmh SW 32.7 mph52.6 kmh 30.34 in1027.4 mb 0.00 in0.0 mm 0.00 in0.0 mm 0.33 in8.4 mm
01:36 AM 52.2°F11.2°C 49.9°F9.9°C 92% 7.6 mph SW12.2 kmh SW 10.1 mph16.3 kmh 30.34 in1027.4 mb 0.00 in0.0 mm 0.00 in0.0 mm 0.33 in8.4 mm
01:34 AM 52.2°F11.2°C 49.9°F9.9°C 92% 16.6 mph SSW26.7 kmh SSW 20.1 mph32.3 kmh 30.34 in1027.4 mb 0.00 in0.0 mm 0.00 in0.0 mm 0.33 in8.4 mm
01:33 AM 52.2°F11.2°C 49.9°F9.9°C 92% 20.1 mph WSW32.3 kmh WSW 30.0 mph48.3 kmh 30.34 in1027.4 mb 0.00 in0.0 mm 0.00 in0.0 mm 0.33 in8.4 mm
01:32 AM 52.2°F11.2°C 49.9°F9.9°C 92% 4.0 mph E6.4 kmh E 4.9 mph7.9 kmh 30.34 in1027.4 mb 0.00 in0.0 mm 0.00 in0.0 mm 0.33 in8.4 mm
01:31 AM 52.2°F11.2°C 49.9°F9.9°C 92% 14.8 mph SSW23.8 kmh SSW 17.5 mph28.2 kmh 30.33 in1027.1 mb 0.00 in0.0 mm 0.00 in0.0 mm 0.33 in8.4 mm
01:29 AM 52.2°F11.2°C 49.9°F9.9°C 92% 13.2 mph SSW21.2 kmh SSW 15.0 mph24.1 kmh 30.34 in1027.4 mb 0.00 in0.0 mm 0.00 in0.0 mm 0.33 in8.4 mm
01:28 AM 52.2°F11.2°C 49.9°F9.9°C 92% 23.7 mph SW38.1 kmh SW 30.0 mph48.3 kmh 30.33 in1027.1 mb 0.00 in0.0 mm 0.00 in0.0 mm 0.33 in8.4 mm
01:27 AM 52.2°F11.2°C 49.9°F9.9°C 92% 11.9 mph SW19.2 kmh SW 15.0 mph24.1 kmh 30.34 in1027.4 mb 0.00 in0.0 mm 0.00 in0.0 mm 0.33 in8.4 mm
01:26 AM 52.2°F11.2°C 49.9°F9.9°C 92% 11.6 mph S18.7 kmh S 12.5 mph20.1 kmh 30.34 in1027.4 mb 0.00 in0.0 mm 0.00 in0.0 mm 0.33 in8.4 mm
01:25 AM 52.2°F11.2°C 49.9°F9.9°C 92% 11.9 mph S19.2 kmh S 17.5 mph28.2 kmh 30.34 in1027.4 mb 0.00 in0.0 mm 0.00 in0.0 mm 0.33 in8.4 mm
01:24 AM 52.2°F11.2°C 49.9°F9.9°C 92% 8.5 mph WSW13.7 kmh WSW 15.0 mph24.1 kmh 30.34 in1027.4 mb 0.07 in1.8 mm 0.00 in0.0 mm 0.33 in8.4 mm
01:23 AM 52.2°F11.2°C 49.9°F9.9°C 92% 17.9 mph W28.8 kmh W 30.0 mph48.3 kmh 30.34 in1027.4 mb 0.07 in1.8 mm 0.00 in0.0 mm 0.33 in8.4 mm
01:22 AM 52.2°F11.2°C 49.9°F9.9°C 92% 25.7 mph SSW41.4 kmh SSW 27.5 mph44.3 kmh 30.33 in1027.1 mb 0.07 in1.8 mm 0.00 in0.0 mm 0.33 in8.4 mm
01:20 AM 52.2°F11.2°C 49.9°F9.9°C 92% 7.2 mph SSW11.6 kmh SSW 12.5 mph20.1 kmh 30.34 in1027.4 mb 0.07 in1.8 mm 0.00 in0.0 mm 0.33 in8.4 mm
01:19 AM 52.2°F11.2°C 49.9°F9.9°C 92% 23.7 mph SW38.1 kmh SW 27.5 mph44.3 kmh 30.34 in1027.4 mb 0.07 in1.8 mm 0.00 in0.0 mm 0.33 in8.4 mm
01:18 AM 52.2°F11.2°C 49.9°F9.9°C 92% 16.3 mph SW26.2 kmh SW 22.6 mph36.4 kmh 30.33 in1027.1 mb 0.07 in1.8 mm 0.00 in0.0 mm 0.33 in8.4 mm
01:16 AM 52.2°F11.2°C 49.9°F9.9°C 92% 15.0 mph SW24.1 kmh SW 17.5 mph28.2 kmh 30.35 in1027.8 mb 0.07 in1.8 mm 0.00 in0.0 mm 0.33 in8.4 mm
01:15 AM 52.2°F11.2°C 49.9°F9.9°C 92% 20.6 mph SSW33.2 kmh SSW 25.1 mph40.4 kmh 30.33 in1027.1 mb 0.14 in3.6 mm 4.20 in106.7 mm 0.33 in8.4 mm
01:14 AM 52.2°F11.2°C 50.2°F10.1°C 93% 24.4 mph SW39.3 kmh SW 30.0 mph48.3 kmh 30.34 in1027.4 mb 0.07 in1.8 mm 0.00 in0.0 mm 0.32 in8.1 mm
01:13 AM 52.2°F11.2°C 50.2°F10.1°C 93% 10.7 mph S17.2 kmh S 12.5 mph20.1 kmh 30.33 in1027.1 mb 0.07 in1.8 mm 0.00 in0.0 mm 0.32 in8.1 mm
01:11 AM 52.3°F11.3°C 50.3°F10.2°C 93% 17.5 mph SSW28.2 kmh SSW 20.1 mph32.3 kmh 30.33 in1027.1 mb 0.07 in1.8 mm 0.00 in0.0 mm 0.32 in8.1 mm
01:10 AM 52.3°F11.3°C 50.3°F10.2°C 93% 15.7 mph S25.3 kmh S 20.1 mph32.3 kmh 30.32 in1026.8 mb 0.07 in1.8 mm 0.00 in0.0 mm 0.32 in8.1 mm
01:09 AM 52.3°F11.3°C 50.3°F10.2°C 93% 12.8 mph SSW20.6 kmh SSW 15.0 mph24.1 kmh 30.34 in1027.4 mb 0.07 in1.8 mm 0.00 in0.0 mm 0.32 in8.1 mm
01:08 AM 52.3°F11.3°C 50.3°F10.2°C 93% 12.8 mph SSW20.6 kmh SSW 15.0 mph24.1 kmh 30.33 in1027.1 mb 0.07 in1.8 mm 0.00 in0.0 mm 0.32 in8.1 mm
01:07 AM 52.3°F11.3°C 50.3°F10.2°C 93% 14.1 mph SSW22.7 kmh SSW 17.5 mph28.2 kmh 30.33 in1027.1 mb 0.14 in3.6 mm 0.00 in0.0 mm 0.32 in8.1 mm
01:06 AM 52.3°F11.3°C 50.3°F10.2°C 93% 18.8 mph SSW30.3 kmh SSW 25.1 mph40.4 kmh 30.31 in1026.4 mb 0.14 in3.6 mm 4.20 in106.7 mm 0.32 in8.1 mm
01:05 AM 52.3°F11.3°C 50.3°F10.2°C 93% 19.5 mph SSE31.4 kmh SSE 22.6 mph36.4 kmh 30.32 in1026.8 mb 0.07 in1.8 mm 0.00 in0.0 mm 0.31 in7.9 mm
01:04 AM 52.3°F11.3°C 50.3°F10.2°C 93% 11.2 mph SSW18.0 kmh SSW 17.5 mph28.2 kmh 30.34 in1027.4 mb 0.14 in3.6 mm 0.00 in0.0 mm 0.31 in7.9 mm
01:02 AM 52.5°F11.4°C 50.8°F10.4°C 94% 16.3 mph SSW26.2 kmh SSW 20.1 mph32.3 kmh 30.33 in1027.1 mb 0.14 in3.6 mm 0.00 in0.0 mm 0.31 in7.9 mm
01:01 AM 52.5°F11.4°C 50.8°F10.4°C 94% 29.5 mph SSW47.5 kmh SSW 32.7 mph52.6 kmh 30.33 in1027.1 mb 0.14 in3.6 mm 0.00 in0.0 mm 0.31 in7.9 mm
01:00 AM 52.5°F11.4°C 50.8°F10.4°C 94% 24.2 mph S38.9 kmh S 30.0 mph48.3 kmh 30.33 in1027.1 mb 0.21 in5.3 mm 0.00 in0.0 mm 0.31 in7.9 mm
12:59 AM 52.5°F11.4°C 50.8°F10.4°C 94% 19.0 mph SSW30.6 kmh SSW 22.6 mph36.4 kmh 30.34 in1027.4 mb 0.21 in5.3 mm 0.00 in0.0 mm 0.31 in7.9 mm
12:58 AM 52.5°F11.4°C 50.8°F10.4°C 94% 15.7 mph S25.3 kmh S 25.1 mph40.4 kmh 30.33 in1027.1 mb 0.28 in7.1 mm 4.20 in106.7 mm 0.31 in7.9 mm
12:57 AM 52.5°F11.4°C 50.8°F10.4°C 94% 12.5 mph SSW20.1 kmh SSW 17.5 mph28.2 kmh 30.33 in1027.1 mb 0.21 in5.3 mm 0.00 in0.0 mm 0.30 in7.6 mm
12:56 AM 52.5°F11.4°C 50.8°F10.4°C 94% 12.3 mph SW19.8 kmh SW 17.5 mph28.2 kmh 30.34 in1027.4 mb 0.21 in5.3 mm 0.00 in0.0 mm 0.30 in7.6 mm
12:55 AM 52.5°F11.4°C 50.8°F10.4°C 94% 21.0 mph SSW33.8 kmh SSW 25.1 mph40.4 kmh 30.32 in1026.8 mb 0.28 in7.1 mm 2.10 in53.3 mm 0.30 in7.6 mm
12:53 AM 52.7°F11.5°C 51.0°F10.6°C 94% 10.7 mph SSW17.2 kmh SSW 12.5 mph20.1 kmh 30.32 in1026.8 mb 0.21 in5.3 mm 0.00 in0.0 mm 0.28 in7.1 mm
12:52 AM 52.7°F11.5°C 51.0°F10.6°C 94% 18.1 mph S29.1 kmh S 25.1 mph40.4 kmh 30.33 in1027.1 mb 0.21 in5.3 mm 0.00 in0.0 mm 0.28 in7.1 mm
12:51 AM 52.7°F11.5°C 51.0°F10.6°C 94% 14.1 mph SSW22.7 kmh SSW 20.1 mph32.3 kmh 30.31 in1026.4 mb 0.21 in5.3 mm 0.00 in0.0 mm 0.27 in6.9 mm
12:50 AM 52.7°F11.5°C 51.0°F10.6°C 94% 7.6 mph S12.2 kmh S 10.1 mph16.3 kmh 30.33 in1027.1 mb 0.21 in5.3 mm 0.00 in0.0 mm 0.27 in6.9 mm
12:49 AM 52.7°F11.5°C 51.0°F10.6°C 94% 18.1 mph SW29.1 kmh SW 20.1 mph32.3 kmh 30.33 in1027.1 mb 0.21 in5.3 mm 4.20 in106.7 mm 0.27 in6.9 mm
12:48 AM 52.7°F11.5°C 51.0°F10.6°C 94% 12.5 mph SW20.1 kmh SW 15.0 mph24.1 kmh 30.33 in1027.1 mb 0.14 in3.6 mm 0.00 in0.0 mm 0.26 in6.6 mm
12:47 AM 52.7°F11.5°C 51.0°F10.6°C 94% 11.0 mph SW17.7 kmh SW 15.0 mph24.1 kmh 30.33 in1027.1 mb 0.14 in3.6 mm 0.00 in0.0 mm 0.26 in6.6 mm
12:46 AM 52.7°F11.5°C 51.0°F10.6°C 94% 11.6 mph S18.7 kmh S 17.5 mph28.2 kmh 30.33 in1027.1 mb 0.21 in5.3 mm 2.10 in53.3 mm 0.26 in6.6 mm
12:44 AM 52.9°F11.6°C 51.2°F10.7°C 94% 16.6 mph SW26.7 kmh SW 20.1 mph32.3 kmh 30.33 in1027.1 mb 0.14 in3.6 mm 0.00 in0.0 mm 0.25 in6.4 mm
12:43 AM 52.9°F11.6°C 51.2°F10.7°C 94% 16.6 mph SSW26.7 kmh SSW 20.1 mph32.3 kmh 30.32 in1026.8 mb 0.14 in3.6 mm 0.00 in0.0 mm 0.25 in6.4 mm
12:42 AM 52.9°F11.6°C 51.2°F10.7°C 94% 9.6 mph SW15.4 kmh SW 17.5 mph28.2 kmh 30.33 in1027.1 mb 0.14 in3.6 mm 4.20 in106.7 mm 0.25 in6.4 mm
12:41 AM 52.9°F11.6°C 50.9°F10.5°C 93% 7.8 mph S12.6 kmh S 10.1 mph16.3 kmh 30.32 in1026.8 mb 0.07 in1.8 mm 0.00 in0.0 mm 0.24 in6.1 mm
12:40 AM 52.9°F11.6°C 50.9°F10.5°C 93% 10.1 mph S16.3 kmh S 12.5 mph20.1 kmh 30.32 in1026.8 mb 0.07 in1.8 mm 0.00 in0.0 mm 0.24 in6.1 mm
12:39 AM 52.9°F11.6°C 50.9°F10.5°C 93% 17.9 mph SSW28.8 kmh SSW 22.6 mph36.4 kmh 30.32 in1026.8 mb 0.07 in1.8 mm 0.00 in0.0 mm 0.24 in6.1 mm
12:38 AM 52.9°F11.6°C 50.9°F10.5°C 93% 15.0 mph S24.1 kmh S 17.5 mph28.2 kmh 30.32 in1026.8 mb 0.14 in3.6 mm 4.20 in106.7 mm 0.24 in6.1 mm
12:37 AM 52.9°F11.6°C 50.9°F10.5°C 93% 8.1 mph SW13.0 kmh SW 10.1 mph16.3 kmh 30.33 in1027.1 mb 0.07 in1.8 mm 0.00 in0.0 mm 0.22 in5.6 mm
12:35 AM 52.9°F11.6°C 50.9°F10.5°C 93% 16.3 mph SW26.2 kmh SW 20.1 mph32.3 kmh 30.32 in1026.8 mb 0.07 in1.8 mm 0.00 in0.0 mm 0.22 in5.6 mm
12:34 AM 52.9°F11.6°C 50.9°F10.5°C 93% 12.5 mph SSW20.1 kmh SSW 17.5 mph28.2 kmh 30.33 in1027.1 mb 0.07 in1.8 mm 0.00 in0.0 mm 0.22 in5.6 mm
12:33 AM 52.9°F11.6°C 50.9°F10.5°C 93% 8.7 mph WSW14.0 kmh WSW 15.0 mph24.1 kmh 30.32 in1026.8 mb 0.07 in1.8 mm 0.00 in0.0 mm 0.22 in5.6 mm
12:32 AM 52.7°F11.5°C 50.7°F10.4°C 93% 16.6 mph SW26.7 kmh SW 22.6 mph36.4 kmh 30.31 in1026.4 mb 0.14 in3.6 mm 0.00 in0.0 mm 0.22 in5.6 mm
12:31 AM 52.7°F11.5°C 50.7°F10.4°C 93% 15.7 mph SSE25.3 kmh SSE 17.5 mph28.2 kmh 30.32 in1026.8 mb 0.14 in3.6 mm 0.00 in0.0 mm 0.22 in5.6 mm
12:30 AM 52.7°F11.5°C 51.0°F10.6°C 94% 10.3 mph SSW16.6 kmh SSW 12.5 mph20.1 kmh 30.31 in1026.4 mb 0.14 in3.6 mm 4.20 in106.7 mm 0.22 in5.6 mm
12:29 AM 52.7°F11.5°C 51.0°F10.6°C 94% 17.5 mph SSW28.2 kmh SSW 22.6 mph36.4 kmh 30.32 in1026.8 mb 0.07 in1.8 mm 0.00 in0.0 mm 0.21 in5.3 mm
12:28 AM 52.5°F11.4°C 50.8°F10.4°C 94% 11.0 mph SW17.7 kmh SW 15.0 mph24.1 kmh 30.32 in1026.8 mb 0.07 in1.8 mm 0.00 in0.0 mm 0.21 in5.3 mm
12:26 AM 52.5°F11.4°C 50.5°F10.3°C 93% 9.4 mph S15.1 kmh S 12.5 mph20.1 kmh 30.32 in1026.8 mb 0.14 in3.6 mm 0.00 in0.0 mm 0.21 in5.3 mm
12:25 AM 52.5°F11.4°C 50.5°F10.3°C 93% 13.4 mph S21.6 kmh S 15.0 mph24.1 kmh 30.30 in1026.1 mb 0.14 in3.6 mm 0.00 in0.0 mm 0.21 in5.3 mm
12:24 AM 52.5°F11.4°C 50.5°F10.3°C 93% 22.2 mph SW35.7 kmh SW 35.1 mph56.5 kmh 30.31 in1026.4 mb 0.14 in3.6 mm 2.10 in53.3 mm 0.21 in5.3 mm
12:22 AM 52.5°F11.4°C 50.5°F10.3°C 93% 17.9 mph S28.8 kmh S 22.6 mph36.4 kmh 30.31 in1026.4 mb 0.07 in1.8 mm 0.00 in0.0 mm 0.20 in5.1 mm
12:21 AM 52.3°F11.3°C 50.3°F10.2°C 93% 21.0 mph S33.8 kmh S 27.5 mph44.3 kmh 30.32 in1026.8 mb 0.14 in3.6 mm 0.00 in0.0 mm 0.20 in5.1 mm
12:20 AM 52.3°F11.3°C 50.3°F10.2°C 93% 15.0 mph SW24.1 kmh SW 20.1 mph32.3 kmh 30.32 in1026.8 mb 0.14 in3.6 mm 0.00 in0.0 mm 0.20 in5.1 mm
12:19 AM 52.3°F11.3°C 50.3°F10.2°C 93% 29.8 mph SSW48.0 kmh SSW 32.7 mph52.6 kmh 30.29 in1025.7 mb 0.14 in3.6 mm 0.00 in0.0 mm 0.20 in5.1 mm
12:17 AM 52.3°F11.3°C 50.3°F10.2°C 93% 13.9 mph S22.4 kmh S 20.1 mph32.3 kmh 30.31 in1026.4 mb 0.14 in3.6 mm 0.00 in0.0 mm 0.20 in5.1 mm
12:16 AM 52.3°F11.3°C 50.3°F10.2°C 93% 20.6 mph SW33.2 kmh SW 27.5 mph44.3 kmh 30.31 in1026.4 mb 0.14 in3.6 mm 0.00 in0.0 mm 0.19 in4.8 mm
12:15 AM 52.3°F11.3°C 50.3°F10.2°C 93% 21.9 mph S35.2 kmh S 30.0 mph48.3 kmh 30.31 in1026.4 mb 0.14 in3.6 mm 0.00 in0.0 mm 0.19 in4.8 mm
12:14 AM 52.3°F11.3°C 50.3°F10.2°C 93% 17.0 mph SSW27.4 kmh SSW 22.6 mph36.4 kmh 30.31 in1026.4 mb 0.21 in5.3 mm 0.00 in0.0 mm 0.19 in4.8 mm
12:13 AM 52.2°F11.2°C 50.2°F10.1°C 93% 17.2 mph SW27.7 kmh SW 22.6 mph36.4 kmh 30.31 in1026.4 mb 0.21 in5.3 mm 0.00 in0.0 mm 0.19 in4.8 mm
12:12 AM 52.2°F11.2°C 49.9°F9.9°C 92% 10.7 mph SSE17.2 kmh SSE 12.5 mph20.1 kmh 30.30 in1026.1 mb 0.21 in5.3 mm 0.00 in0.0 mm 0.19 in4.8 mm
12:11 AM 52.2°F11.2°C 49.9°F9.9°C 92% 17.5 mph S28.2 kmh S 25.1 mph40.4 kmh 30.27 in1025.1 mb 0.21 in5.3 mm 0.00 in0.0 mm 0.18 in4.6 mm
12:10 AM 52.2°F11.2°C 49.9°F9.9°C 92% 18.8 mph S30.3 kmh S 25.1 mph40.4 kmh 30.32 in1026.8 mb 0.21 in5.3 mm 0.00 in0.0 mm 0.18 in4.6 mm
12:08 AM 52.2°F11.2°C 50.2°F10.1°C 93% 17.2 mph SW27.7 kmh SW 20.1 mph32.3 kmh 30.29 in1025.7 mb 0.28 in7.1 mm 0.00 in0.0 mm 0.18 in4.6 mm
12:07 AM 52.0°F11.1°C 50.0°F10.0°C 93% 21.0 mph S33.8 kmh S 25.1 mph40.4 kmh 30.31 in1026.4 mb 0.28 in7.1 mm 0.00 in0.0 mm 0.17 in4.3 mm
12:06 AM 52.0°F11.1°C 50.3°F10.2°C 94% 18.8 mph S30.3 kmh S 22.6 mph36.4 kmh 30.29 in1025.7 mb 0.28 in7.1 mm 0.00 in0.0 mm 0.17 in4.3 mm
12:05 AM 52.0°F11.1°C 50.3°F10.2°C 94% 18.6 mph SW29.9 kmh SW 22.6 mph36.4 kmh 30.29 in1025.7 mb 0.28 in7.1 mm 4.20 in106.7 mm 0.17 in4.3 mm
12:04 AM 52.0°F11.1°C 50.0°F10.0°C 93% 6.9 mph S11.1 kmh S 10.1 mph16.3 kmh 30.31 in1026.4 mb 0.21 in5.3 mm 0.00 in0.0 mm 0.15 in3.8 mm
12:03 AM 52.2°F11.2°C 50.2°F10.1°C 93% 11.0 mph SSW17.7 kmh SSW 12.5 mph20.1 kmh 30.31 in1026.4 mb 0.28 in7.1 mm 0.00 in0.0 mm 0.15 in3.8 mm
12:02 AM 52.2°F11.2°C 50.2°F10.1°C 93% 6.9 mph SW11.1 kmh SW 10.1 mph16.3 kmh 30.31 in1026.4 mb 0.28 in7.1 mm 4.20 in106.7 mm 0.15 in3.8 mm
12:01 AM 52.2°F11.2°C 50.2°F10.1°C 93% 11.9 mph SSW19.2 kmh SSW 15.0 mph24.1 kmh 30.30 in1026.1 mb 0.21 in5.3 mm 12.60 in320.0 mm 0.14 in3.6 mm